PWSweather.com
Personal Weather Stations
Station Observations
DL5ARK
SonnebergDE

SonnebergDE

Lat: 50.34904861, Lon: 11.18112087

Elevation: 1214

Station Type: Selfmade

http://www.sumbarg.de

High Low Average
Temperature 38.2°F3.4°C 34.0°F1.1°C 35.4°F1.9°C
Dew Point 41.3°F5.2°C 36.0°F2.2°C 38.2°F3.4°C
Winds 11.0 mph 17.7 kmh Calm Calm 3.0 mph W4.8 kmh W
Wind Gusts 11.2 mph18.0 kmh -- 3.0 mph4.8 kmh
Humidity 93% 79% 87%
Pressure 30.15 in1021.0 mb 29.75 in1007.5 mb -
Precipitation 0.58 in14.7 mm - -
Hour Temp Dew Point Humidity Winds Wind Gusts Pressure Precip Precip Rate Daily Precip Total
12:00 AM 34.5°F1.4°C 37.7°F3.2°C 87% 2.8 mph NW4.5 kmh NW 2.8 mph4.5 kmh 30.14 in1020.7 mb 0.00 in0.0 mm 0.00 in0.0 mm 0.00 in0.0 mm
12:03 AM 34.5°F1.4°C 37.6°F3.1°C 87% 0.8 mph NNW1.3 kmh NNW 0.8 mph1.3 kmh 30.14 in1020.7 mb 0.00 in0.0 mm 0.00 in0.0 mm 0.00 in0.0 mm
12:06 AM 34.6°F1.4°C 37.7°F3.2°C 87% 2.4 mph W3.9 kmh W 2.4 mph3.9 kmh 30.14 in1020.7 mb 0.00 in0.0 mm 0.00 in0.0 mm 0.00 in0.0 mm
12:09 AM 34.5°F1.4°C 37.6°F3.1°C 87% 1.6 mph WSW2.6 kmh WSW 1.6 mph2.6 kmh 30.14 in1020.7 mb 0.00 in0.0 mm 0.00 in0.0 mm 0.00 in0.0 mm
12:12 AM 34.5°F1.4°C 37.9°F3.3°C 87% 2.4 mph W3.9 kmh W 2.4 mph3.9 kmh 30.14 in1020.7 mb 0.00 in0.0 mm 0.00 in0.0 mm 0.00 in0.0 mm
12:15 AM 34.5°F1.4°C 37.8°F3.2°C 87% Calm Calm -- 30.14 in1020.7 mb 0.00 in0.0 mm 0.00 in0.0 mm 0.00 in0.0 mm
12:18 AM 34.5°F1.4°C 37.9°F3.3°C 87% 2.0 mph W3.2 kmh W 2.0 mph3.2 kmh 30.14 in1020.7 mb 0.00 in0.0 mm 0.00 in0.0 mm 0.00 in0.0 mm
12:21 AM 34.6°F1.4°C 37.7°F3.2°C 87% 1.6 mph NNW2.6 kmh NNW 1.6 mph2.6 kmh 30.14 in1020.7 mb 0.00 in0.0 mm 0.00 in0.0 mm 0.00 in0.0 mm
12:24 AM 34.6°F1.4°C 37.6°F3.1°C 87% 2.8 mph WNW4.5 kmh WNW 2.9 mph4.7 kmh 30.14 in1020.7 mb 0.00 in0.0 mm 0.00 in0.0 mm 0.00 in0.0 mm
12:27 AM 34.6°F1.4°C 37.6°F3.1°C 87% 2.8 mph NW4.5 kmh NW 2.9 mph4.7 kmh 30.14 in1020.7 mb 0.00 in0.0 mm 0.00 in0.0 mm 0.00 in0.0 mm
12:30 AM 34.6°F1.4°C 37.1°F2.8°C 86% 3.6 mph W5.8 kmh W 3.7 mph6.0 kmh 30.14 in1020.7 mb 0.00 in0.0 mm 0.00 in0.0 mm 0.00 in0.0 mm
12:33 AM 34.6°F1.4°C 37.4°F3.0°C 87% 3.2 mph NW5.1 kmh NW 3.3 mph5.3 kmh 30.14 in1020.7 mb 0.00 in0.0 mm 0.00 in0.0 mm 0.00 in0.0 mm
12:36 AM 34.6°F1.4°C 37.7°F3.2°C 87% 3.6 mph WNW5.8 kmh WNW 3.7 mph6.0 kmh 30.14 in1020.7 mb 0.00 in0.0 mm 0.00 in0.0 mm 0.00 in0.0 mm
12:39 AM 34.6°F1.4°C 37.5°F3.1°C 87% 2.0 mph NW3.2 kmh NW 2.0 mph3.2 kmh 30.14 in1020.7 mb 0.00 in0.0 mm 0.00 in0.0 mm 0.00 in0.0 mm
12:42 AM 34.6°F1.4°C 37.5°F3.1°C 87% 5.7 mph W9.2 kmh W 5.7 mph9.2 kmh 30.14 in1020.7 mb 0.00 in0.0 mm 0.00 in0.0 mm 0.00 in0.0 mm
12:45 AM 34.6°F1.4°C 37.6°F3.1°C 87% 5.2 mph NNW8.4 kmh NNW 5.2 mph8.4 kmh 30.14 in1020.7 mb 0.00 in0.0 mm 0.00 in0.0 mm 0.00 in0.0 mm
12:48 AM 34.6°F1.4°C 37.4°F3.0°C 87% 2.0 mph NW3.2 kmh NW 2.0 mph3.2 kmh 30.14 in1020.7 mb 0.00 in0.0 mm 0.00 in0.0 mm 0.00 in0.0 mm
12:51 AM 34.6°F1.4°C 37.7°F3.2°C 87% 3.2 mph NNW5.1 kmh NNW 3.2 mph5.1 kmh 30.14 in1020.7 mb 0.00 in0.0 mm 0.00 in0.0 mm 0.00 in0.0 mm
12:57 AM 34.6°F1.4°C 37.6°F3.1°C 87% 2.4 mph NW3.9 kmh NW 2.4 mph3.9 kmh 30.14 in1020.7 mb 0.00 in0.0 mm 0.00 in0.0 mm 0.00 in0.0 mm
01:00 AM 34.6°F1.4°C 37.4°F3.0°C 87% 2.4 mph W3.9 kmh W 2.4 mph3.9 kmh 30.14 in1020.7 mb 0.00 in0.0 mm 0.00 in0.0 mm 0.00 in0.0 mm
01:03 AM 34.6°F1.4°C 37.6°F3.1°C 87% 0.4 mph W0.6 kmh W 0.4 mph0.6 kmh 30.14 in1020.7 mb 0.00 in0.0 mm 0.00 in0.0 mm 0.00 in0.0 mm
01:06 AM 34.6°F1.4°C 37.7°F3.2°C 87% 4.0 mph NW6.4 kmh NW 4.0 mph6.4 kmh 30.14 in1020.7 mb 0.00 in0.0 mm 0.00 in0.0 mm 0.00 in0.0 mm
01:09 AM 34.6°F1.4°C 37.6°F3.1°C 87% 1.2 mph NW1.9 kmh NW 1.2 mph1.9 kmh 30.14 in1020.7 mb 0.00 in0.0 mm 0.00 in0.0 mm 0.00 in0.0 mm
01:12 AM 34.6°F1.4°C 37.6°F3.1°C 87% 4.8 mph W7.7 kmh W 4.9 mph7.9 kmh 30.14 in1020.7 mb 0.00 in0.0 mm 0.00 in0.0 mm 0.00 in0.0 mm
01:15 AM 34.6°F1.4°C 37.6°F3.1°C 87% 5.2 mph NW8.4 kmh NW 5.2 mph8.4 kmh 30.14 in1020.7 mb 0.00 in0.0 mm 0.00 in0.0 mm 0.00 in0.0 mm
01:18 AM 34.5°F1.4°C 37.5°F3.1°C 87% 2.8 mph NNW4.5 kmh NNW 2.8 mph4.5 kmh 30.14 in1020.7 mb 0.00 in0.0 mm 0.00 in0.0 mm 0.00 in0.0 mm
01:21 AM 34.6°F1.4°C 37.5°F3.1°C 87% 3.6 mph NW5.8 kmh NW 3.7 mph6.0 kmh 30.13 in1020.3 mb 0.00 in0.0 mm 0.00 in0.0 mm 0.00 in0.0 mm
01:24 AM 34.6°F1.4°C 37.8°F3.2°C 87% 5.7 mph WNW9.2 kmh WNW 5.7 mph9.2 kmh 30.13 in1020.3 mb 0.00 in0.0 mm 0.00 in0.0 mm 0.00 in0.0 mm
01:27 AM 34.5°F1.4°C 37.5°F3.1°C 86% 3.6 mph WNW5.8 kmh WNW 3.7 mph6.0 kmh 30.14 in1020.7 mb 0.00 in0.0 mm 0.00 in0.0 mm 0.00 in0.0 mm
01:30 AM 34.6°F1.4°C 37.5°F3.1°C 87% 2.4 mph W3.9 kmh W 2.4 mph3.9 kmh 30.14 in1020.7 mb 0.00 in0.0 mm 0.00 in0.0 mm 0.00 in0.0 mm
01:33 AM 34.6°F1.4°C 37.7°F3.2°C 88% 4.8 mph NW7.7 kmh NW 4.8 mph7.7 kmh 30.14 in1020.7 mb 0.00 in0.0 mm 0.00 in0.0 mm 0.00 in0.0 mm
01:36 AM 34.6°F1.4°C 37.3°F2.9°C 86% 5.2 mph WNW8.4 kmh WNW 5.3 mph8.5 kmh 30.14 in1020.7 mb 0.00 in0.0 mm 0.00 in0.0 mm 0.00 in0.0 mm
01:39 AM 34.6°F1.4°C 37.7°F3.2°C 87% 4.4 mph NNW7.1 kmh NNW 4.4 mph7.1 kmh 30.14 in1020.7 mb 0.00 in0.0 mm 0.00 in0.0 mm 0.00 in0.0 mm
01:42 AM 34.6°F1.4°C 37.5°F3.1°C 87% 2.0 mph NW3.2 kmh NW 2.0 mph3.2 kmh 30.14 in1020.7 mb 0.00 in0.0 mm 0.00 in0.0 mm 0.00 in0.0 mm
01:45 AM 34.5°F1.4°C 37.6°F3.1°C 87% 4.0 mph NW6.4 kmh NW 4.1 mph6.6 kmh 30.14 in1020.7 mb 0.00 in0.0 mm 0.00 in0.0 mm 0.00 in0.0 mm
01:48 AM 34.6°F1.4°C 37.6°F3.1°C 87% 5.2 mph NNW8.4 kmh NNW 5.3 mph8.5 kmh 30.14 in1020.7 mb 0.00 in0.0 mm 0.00 in0.0 mm 0.00 in0.0 mm
01:51 AM 34.6°F1.4°C 37.6°F3.1°C 87% 1.2 mph NNW1.9 kmh NNW 1.2 mph1.9 kmh 30.14 in1020.7 mb 0.00 in0.0 mm 0.00 in0.0 mm 0.00 in0.0 mm
01:54 AM 34.6°F1.4°C 37.6°F3.1°C 87% 4.4 mph NNW7.1 kmh NNW 4.5 mph7.2 kmh 30.14 in1020.7 mb 0.00 in0.0 mm 0.00 in0.0 mm 0.00 in0.0 mm
01:57 AM 34.5°F1.4°C 37.4°F3.0°C 87% 3.2 mph NNW5.1 kmh NNW 3.3 mph5.3 kmh 30.14 in1020.7 mb 0.00 in0.0 mm 0.00 in0.0 mm 0.00 in0.0 mm
02:00 AM 34.5°F1.4°C 37.8°F3.2°C 87% Calm Calm -- 30.14 in1020.7 mb 0.00 in0.0 mm 0.00 in0.0 mm 0.00 in0.0 mm
02:03 AM 34.6°F1.4°C 37.7°F3.2°C 87% 1.6 mph NNW2.6 kmh NNW 1.6 mph2.6 kmh 30.14 in1020.7 mb 0.00 in0.0 mm 0.00 in0.0 mm 0.00 in0.0 mm
02:06 AM 34.6°F1.4°C 37.5°F3.1°C 87% 3.6 mph NNW5.8 kmh NNW 3.7 mph6.0 kmh 30.14 in1020.7 mb 0.00 in0.0 mm 0.00 in0.0 mm 0.00 in0.0 mm
02:09 AM 34.5°F1.4°C 37.7°F3.2°C 87% Calm Calm -- 30.14 in1020.7 mb 0.00 in0.0 mm 0.00 in0.0 mm 0.00 in0.0 mm
02:12 AM 34.6°F1.4°C 37.6°F3.1°C 87% 0.4 mph WNW0.6 kmh WNW 0.4 mph0.6 kmh 30.14 in1020.7 mb 0.00 in0.0 mm 0.00 in0.0 mm 0.00 in0.0 mm
02:15 AM 34.5°F1.4°C 37.7°F3.2°C 87% Calm Calm -- 30.14 in1020.7 mb 0.00 in0.0 mm 0.00 in0.0 mm 0.00 in0.0 mm
02:18 AM 34.6°F1.4°C 37.7°F3.2°C 87% 3.6 mph NW5.8 kmh NW 3.6 mph5.8 kmh 30.14 in1020.7 mb 0.00 in0.0 mm 0.00 in0.0 mm 0.00 in0.0 mm
02:21 AM 34.5°F1.4°C 37.8°F3.2°C 87% 0.4 mph WNW0.6 kmh WNW 0.4 mph0.6 kmh 30.14 in1020.7 mb 0.00 in0.0 mm 0.00 in0.0 mm 0.00 in0.0 mm
02:24 AM 34.6°F1.4°C 37.6°F3.1°C 87% 2.0 mph NW3.2 kmh NW 2.0 mph3.2 kmh 30.14 in1020.7 mb 0.00 in0.0 mm 0.00 in0.0 mm 0.00 in0.0 mm
02:27 AM 34.6°F1.4°C 37.7°F3.2°C 87% 2.0 mph NW3.2 kmh NW 2.0 mph3.2 kmh 30.14 in1020.7 mb 0.00 in0.0 mm 0.00 in0.0 mm 0.00 in0.0 mm
02:30 AM 34.6°F1.4°C 37.6°F3.1°C 87% 1.6 mph NNW2.6 kmh NNW 1.6 mph2.6 kmh 30.14 in1020.7 mb 0.00 in0.0 mm 0.00 in0.0 mm 0.00 in0.0 mm
02:33 AM 34.5°F1.4°C 37.5°F3.1°C 87% 1.6 mph WNW2.6 kmh WNW 1.6 mph2.6 kmh 30.14 in1020.7 mb 0.00 in0.0 mm 0.00 in0.0 mm 0.00 in0.0 mm
02:36 AM 34.5°F1.4°C 37.7°F3.2°C 87% 3.6 mph NW5.8 kmh NW 3.7 mph6.0 kmh 30.14 in1020.7 mb 0.00 in0.0 mm 0.00 in0.0 mm 0.00 in0.0 mm
02:39 AM 34.5°F1.4°C 37.6°F3.1°C 87% 2.8 mph NW4.5 kmh NW 2.8 mph4.5 kmh 30.14 in1020.7 mb 0.00 in0.0 mm 0.00 in0.0 mm 0.00 in0.0 mm
02:42 AM 34.5°F1.4°C 37.6°F3.1°C 87% 2.8 mph NNW4.5 kmh NNW 2.9 mph4.7 kmh 30.15 in1021.0 mb 0.00 in0.0 mm 0.00 in0.0 mm 0.00 in0.0 mm
02:45 AM 34.5°F1.4°C 37.9°F3.3°C 87% 1.2 mph NNW1.9 kmh NNW 1.2 mph1.9 kmh 30.14 in1020.7 mb 0.00 in0.0 mm 0.00 in0.0 mm 0.00 in0.0 mm
02:48 AM 34.5°F1.4°C 37.8°F3.2°C 87% 2.8 mph NNW4.5 kmh NNW 2.9 mph4.7 kmh 30.14 in1020.7 mb 0.00 in0.0 mm 0.00 in0.0 mm 0.00 in0.0 mm
02:51 AM 34.5°F1.4°C 37.6°F3.1°C 87% 1.2 mph NNW1.9 kmh NNW 1.2 mph1.9 kmh 30.15 in1021.0 mb 0.00 in0.0 mm 0.00 in0.0 mm 0.00 in0.0 mm
02:54 AM 34.6°F1.4°C 37.9°F3.3°C 87% 3.2 mph NNW5.1 kmh NNW 3.3 mph5.3 kmh 30.15 in1021.0 mb 0.00 in0.0 mm 0.00 in0.0 mm 0.00 in0.0 mm
02:57 AM 34.6°F1.4°C 37.5°F3.1°C 87% 1.2 mph NNW1.9 kmh NNW 1.2 mph1.9 kmh 30.15 in1021.0 mb 0.00 in0.0 mm 0.00 in0.0 mm 0.00 in0.0 mm
03:00 AM 34.6°F1.4°C 37.5°F3.1°C 87% 3.6 mph NNW5.8 kmh NNW 3.7 mph6.0 kmh 30.15 in1021.0 mb 0.00 in0.0 mm 0.00 in0.0 mm 0.00 in0.0 mm
03:03 AM 34.6°F1.4°C 37.5°F3.1°C 87% 5.3 mph 8.5 kmh 5.3 mph8.5 kmh 30.15 in1021.0 mb 0.00 in0.0 mm 0.00 in0.0 mm 0.00 in0.0 mm
03:06 AM 34.6°F1.4°C 37.5°F3.1°C 87% 0.4 mph W0.6 kmh W 0.4 mph0.6 kmh 30.15 in1021.0 mb 0.00 in0.0 mm 0.00 in0.0 mm 0.00 in0.0 mm
03:09 AM 34.6°F1.4°C 37.5°F3.1°C 87% Calm Calm -- 30.15 in1021.0 mb 0.00 in0.0 mm 0.00 in0.0 mm 0.00 in0.0 mm
03:12 AM 34.6°F1.4°C 37.5°F3.1°C 87% 2.8 mph NW4.5 kmh NW 2.9 mph4.7 kmh 30.14 in1020.7 mb 0.00 in0.0 mm 0.00 in0.0 mm 0.00 in0.0 mm
03:15 AM 34.6°F1.4°C 37.6°F3.1°C 87% 5.6 mph NNW9.0 kmh NNW 5.7 mph9.2 kmh 30.15 in1021.0 mb 0.00 in0.0 mm 0.00 in0.0 mm 0.00 in0.0 mm
03:18 AM 34.6°F1.4°C 37.9°F3.3°C 87% 0.4 mph WNW0.6 kmh WNW 0.4 mph0.6 kmh 30.15 in1021.0 mb 0.00 in0.0 mm 0.00 in0.0 mm 0.00 in0.0 mm
03:21 AM 34.5°F1.4°C 37.8°F3.2°C 87% Calm Calm -- 30.15 in1021.0 mb 0.00 in0.0 mm 0.00 in0.0 mm 0.00 in0.0 mm
03:24 AM 34.6°F1.4°C 37.5°F3.1°C 87% Calm Calm -- 30.15 in1021.0 mb 0.00 in0.0 mm 0.00 in0.0 mm 0.00 in0.0 mm
03:27 AM 34.6°F1.4°C 37.5°F3.1°C 86% Calm Calm -- 30.15 in1021.0 mb 0.00 in0.0 mm 0.00 in0.0 mm 0.00 in0.0 mm
03:30 AM 34.6°F1.4°C 37.5°F3.1°C 87% 0.8 mph W1.3 kmh W 0.8 mph1.3 kmh 30.15 in1021.0 mb 0.00 in0.0 mm 0.00 in0.0 mm 0.00 in0.0 mm
03:33 AM 34.6°F1.4°C 37.4°F3.0°C 86% 3.6 mph NNW5.8 kmh NNW 3.7 mph6.0 kmh 30.15 in1021.0 mb 0.00 in0.0 mm 0.00 in0.0 mm 0.00 in0.0 mm
03:36 AM 34.6°F1.4°C 37.5°F3.1°C 87% Calm Calm -- 30.15 in1021.0 mb 0.00 in0.0 mm 0.00 in0.0 mm 0.00 in0.0 mm
03:39 AM 34.6°F1.4°C 37.5°F3.1°C 86% 3.6 mph WNW5.8 kmh WNW 3.6 mph5.8 kmh 30.15 in1021.0 mb 0.00 in0.0 mm 0.00 in0.0 mm 0.00 in0.0 mm
03:42 AM 34.6°F1.4°C 37.7°F3.2°C 87% 0.8 mph NW1.3 kmh NW 0.8 mph1.3 kmh 30.15 in1021.0 mb 0.00 in0.0 mm 0.00 in0.0 mm 0.00 in0.0 mm
03:45 AM 34.6°F1.4°C 37.6°F3.1°C 86% 2.0 mph NW3.2 kmh NW 2.0 mph3.2 kmh 30.15 in1021.0 mb 0.00 in0.0 mm 0.00 in0.0 mm 0.00 in0.0 mm
03:48 AM 34.6°F1.4°C 37.5°F3.1°C 87% 2.4 mph WNW3.9 kmh WNW 2.4 mph3.9 kmh 30.15 in1021.0 mb 0.00 in0.0 mm 0.00 in0.0 mm 0.00 in0.0 mm
03:51 AM 34.6°F1.4°C 37.5°F3.1°C 87% 3.6 mph NNW5.8 kmh NNW 3.7 mph6.0 kmh 30.15 in1021.0 mb 0.00 in0.0 mm 0.00 in0.0 mm 0.00 in0.0 mm
03:54 AM 34.6°F1.4°C 37.7°F3.2°C 87% 2.4 mph W3.9 kmh W 2.5 mph4.0 kmh 30.15 in1021.0 mb 0.00 in0.0 mm 0.00 in0.0 mm 0.00 in0.0 mm
03:57 AM 34.6°F1.4°C 37.7°F3.2°C 86% Calm Calm -- 30.15 in1021.0 mb 0.00 in0.0 mm 0.00 in0.0 mm 0.00 in0.0 mm
04:00 AM 34.6°F1.4°C 37.3°F2.9°C 86% 2.0 mph NNW3.2 kmh NNW 2.0 mph3.2 kmh 30.15 in1021.0 mb 0.00 in0.0 mm 0.00 in0.0 mm 0.00 in0.0 mm
04:03 AM 34.6°F1.4°C 37.7°F3.2°C 86% Calm Calm -- 30.14 in1020.7 mb 0.00 in0.0 mm 0.00 in0.0 mm 0.00 in0.0 mm
04:06 AM 34.6°F1.4°C 37.4°F3.0°C 86% 1.2 mph W1.9 kmh W 1.2 mph1.9 kmh 30.15 in1021.0 mb 0.00 in0.0 mm 0.00 in0.0 mm 0.00 in0.0 mm
04:09 AM 34.6°F1.4°C 37.6°F3.1°C 86% 1.2 mph W1.9 kmh W 1.2 mph1.9 kmh 30.14 in1020.7 mb 0.00 in0.0 mm 0.00 in0.0 mm 0.00 in0.0 mm
04:12 AM 34.6°F1.4°C 37.4°F3.0°C 86% 0.8 mph NW1.3 kmh NW 0.8 mph1.3 kmh 30.14 in1020.7 mb 0.00 in0.0 mm 0.00 in0.0 mm 0.00 in0.0 mm
04:15 AM 34.6°F1.4°C 37.4°F3.0°C 85% 0.8 mph NW1.3 kmh NW 0.8 mph1.3 kmh 30.14 in1020.7 mb 0.00 in0.0 mm 0.00 in0.0 mm 0.00 in0.0 mm
04:18 AM 34.6°F1.4°C 37.7°F3.2°C 86% Calm Calm -- 30.14 in1020.7 mb 0.00 in0.0 mm 0.00 in0.0 mm 0.00 in0.0 mm
04:21 AM 34.7°F1.5°C 37.7°F3.2°C 86% 2.8 mph NNW4.5 kmh NNW 2.9 mph4.7 kmh 30.14 in1020.7 mb 0.00 in0.0 mm 0.00 in0.0 mm 0.00 in0.0 mm
04:24 AM 34.6°F1.4°C 37.3°F2.9°C 86% 4.1 mph NW6.6 kmh NW 4.1 mph6.6 kmh 30.14 in1020.7 mb 0.00 in0.0 mm 0.00 in0.0 mm 0.00 in0.0 mm
04:27 AM 34.6°F1.4°C 37.6°F3.1°C 86% Calm Calm -- 30.14 in1020.7 mb 0.00 in0.0 mm 0.00 in0.0 mm 0.00 in0.0 mm
04:30 AM 34.6°F1.4°C 37.3°F2.9°C 85% Calm Calm -- 30.14 in1020.7 mb 0.00 in0.0 mm 0.00 in0.0 mm 0.00 in0.0 mm
04:33 AM 34.7°F1.5°C 37.5°F3.1°C 86% 3.6 mph W5.8 kmh W 3.7 mph6.0 kmh 30.14 in1020.7 mb 0.00 in0.0 mm 0.00 in0.0 mm 0.00 in0.0 mm
04:36 AM 34.7°F1.5°C 37.5°F3.1°C 86% 3.2 mph NW5.1 kmh NW 3.2 mph5.1 kmh 30.14 in1020.7 mb 0.00 in0.0 mm 0.00 in0.0 mm 0.00 in0.0 mm
04:39 AM 34.7°F1.5°C 37.3°F2.9°C 86% 2.0 mph NW3.2 kmh NW 2.0 mph3.2 kmh 30.14 in1020.7 mb 0.00 in0.0 mm 0.00 in0.0 mm 0.00 in0.0 mm
04:42 AM 34.6°F1.4°C 37.2°F2.9°C 86% 5.7 mph W9.2 kmh W 5.7 mph9.2 kmh 30.14 in1020.7 mb 0.00 in0.0 mm 0.00 in0.0 mm 0.00 in0.0 mm
04:45 AM 34.6°F1.4°C 37.6°F3.1°C 86% 2.0 mph NNW3.2 kmh NNW 2.0 mph3.2 kmh 30.14 in1020.7 mb 0.00 in0.0 mm 0.00 in0.0 mm 0.00 in0.0 mm
04:48 AM 34.7°F1.5°C 37.5°F3.1°C 86% 2.0 mph W3.2 kmh W 2.0 mph3.2 kmh 30.14 in1020.7 mb 0.00 in0.0 mm 0.00 in0.0 mm 0.00 in0.0 mm
04:51 AM 34.7°F1.5°C 37.7°F3.2°C 87% 2.8 mph WSW4.5 kmh WSW 2.8 mph4.5 kmh 30.14 in1020.7 mb 0.00 in0.0 mm 0.00 in0.0 mm 0.00 in0.0 mm
04:54 AM 34.7°F1.5°C 37.5°F3.1°C 86% 3.6 mph W5.8 kmh W 3.6 mph5.8 kmh 30.14 in1020.7 mb 0.00 in0.0 mm 0.00 in0.0 mm 0.00 in0.0 mm
04:57 AM 34.7°F1.5°C 37.3°F2.9°C 85% 2.4 mph W3.9 kmh W 2.4 mph3.9 kmh 30.14 in1020.7 mb 0.00 in0.0 mm 0.00 in0.0 mm 0.00 in0.0 mm
05:00 AM 34.7°F1.5°C 37.6°F3.1°C 86% 0.8 mph NNW1.3 kmh NNW 0.8 mph1.3 kmh 30.14 in1020.7 mb 0.00 in0.0 mm 0.00 in0.0 mm 0.00 in0.0 mm
05:03 AM 34.7°F1.5°C 37.6°F3.1°C 86% 2.8 mph W4.5 kmh W 2.9 mph4.7 kmh 30.14 in1020.7 mb 0.00 in0.0 mm 0.00 in0.0 mm 0.00 in0.0 mm
05:06 AM 34.7°F1.5°C 37.7°F3.2°C 87% 4.4 mph W7.1 kmh W 4.5 mph7.2 kmh 30.14 in1020.7 mb 0.00 in0.0 mm 0.00 in0.0 mm 0.00 in0.0 mm
05:09 AM 34.7°F1.5°C 37.6°F3.1°C 86% 4.4 mph NNW7.1 kmh NNW 4.5 mph7.2 kmh 30.14 in1020.7 mb 0.00 in0.0 mm 0.00 in0.0 mm 0.00 in0.0 mm
05:12 AM 34.7°F1.5°C 37.7°F3.2°C 86% 2.4 mph WSW3.9 kmh WSW 2.4 mph3.9 kmh 30.14 in1020.7 mb 0.00 in0.0 mm 0.00 in0.0 mm 0.00 in0.0 mm
05:15 AM 34.7°F1.5°C 37.4°F3.0°C 86% 2.8 mph W4.5 kmh W 2.9 mph4.7 kmh 30.14 in1020.7 mb 0.00 in0.0 mm 0.00 in0.0 mm 0.00 in0.0 mm
05:18 AM 34.7°F1.5°C 37.5°F3.1°C 87% Calm Calm -- 30.14 in1020.7 mb 0.00 in0.0 mm 0.00 in0.0 mm 0.00 in0.0 mm
05:21 AM 34.7°F1.5°C 37.5°F3.1°C 86% 2.4 mph W3.9 kmh W 2.4 mph3.9 kmh 30.13 in1020.3 mb 0.00 in0.0 mm 0.00 in0.0 mm 0.00 in0.0 mm
05:24 AM 34.7°F1.5°C 37.6°F3.1°C 86% 2.8 mph WNW4.5 kmh WNW 2.8 mph4.5 kmh 30.13 in1020.3 mb 0.00 in0.0 mm 0.00 in0.0 mm 0.00 in0.0 mm
05:27 AM 34.7°F1.5°C 37.6°F3.1°C 86% Calm Calm -- 30.13 in1020.3 mb 0.00 in0.0 mm 0.00 in0.0 mm 0.00 in0.0 mm
05:30 AM 34.7°F1.5°C 37.8°F3.2°C 86% Calm Calm -- 30.13 in1020.3 mb 0.00 in0.0 mm 0.00 in0.0 mm 0.00 in0.0 mm
05:33 AM 34.8°F1.6°C 37.3°F2.9°C 85% Calm Calm -- 30.13 in1020.3 mb 0.00 in0.0 mm 0.00 in0.0 mm 0.00 in0.0 mm
05:36 AM 34.8°F1.6°C 37.5°F3.1°C 86% 2.4 mph WSW3.9 kmh WSW 2.4 mph3.9 kmh 30.13 in1020.3 mb 0.00 in0.0 mm 0.00 in0.0 mm 0.00 in0.0 mm
05:39 AM 34.7°F1.5°C 37.5°F3.1°C 86% 4.4 mph W7.1 kmh W 4.5 mph7.2 kmh 30.13 in1020.3 mb 0.00 in0.0 mm 0.00 in0.0 mm 0.00 in0.0 mm
05:42 AM 34.7°F1.5°C 37.8°F3.2°C 86% 3.2 mph W5.1 kmh W 3.3 mph5.3 kmh 30.13 in1020.3 mb 0.00 in0.0 mm 0.00 in0.0 mm 0.00 in0.0 mm
05:45 AM 34.7°F1.5°C 37.6°F3.1°C 86% 0.8 mph W1.3 kmh W 0.8 mph1.3 kmh 30.13 in1020.3 mb 0.00 in0.0 mm 0.00 in0.0 mm 0.00 in0.0 mm
05:48 AM 34.7°F1.5°C 37.6°F3.1°C 86% 1.6 mph W2.6 kmh W 1.6 mph2.6 kmh 30.13 in1020.3 mb 0.00 in0.0 mm 0.00 in0.0 mm 0.00 in0.0 mm
05:51 AM 34.7°F1.5°C 37.6°F3.1°C 86% Calm Calm -- 30.13 in1020.3 mb 0.00 in0.0 mm 0.00 in0.0 mm 0.00 in0.0 mm
05:57 AM 34.8°F1.6°C 37.6°F3.1°C 86% 4.4 mph WSW7.1 kmh WSW 4.5 mph7.2 kmh 30.13 in1020.3 mb 0.00 in0.0 mm 0.00 in0.0 mm 0.00 in0.0 mm
06:00 AM 34.9°F1.6°C 37.6°F3.1°C 86% 2.8 mph WSW4.5 kmh WSW 2.9 mph4.7 kmh 30.13 in1020.3 mb 0.00 in0.0 mm 0.00 in0.0 mm 0.00 in0.0 mm
06:03 AM 34.9°F1.6°C 37.6°F3.1°C 86% 3.6 mph WSW5.8 kmh WSW 3.6 mph5.8 kmh 30.13 in1020.3 mb 0.00 in0.0 mm 0.00 in0.0 mm 0.00 in0.0 mm
06:06 AM 34.9°F1.6°C 37.6°F3.1°C 86% 0.4 mph W0.6 kmh W 0.4 mph0.6 kmh 30.13 in1020.3 mb 0.00 in0.0 mm 0.00 in0.0 mm 0.00 in0.0 mm
06:09 AM 34.8°F1.6°C 37.4°F3.0°C 86% 1.6 mph W2.6 kmh W 1.6 mph2.6 kmh 30.13 in1020.3 mb 0.00 in0.0 mm 0.00 in0.0 mm 0.00 in0.0 mm
06:12 AM 34.8°F1.6°C 37.5°F3.1°C 85% 4.4 mph WSW7.1 kmh WSW 4.5 mph7.2 kmh 30.13 in1020.3 mb 0.00 in0.0 mm 0.00 in0.0 mm 0.00 in0.0 mm
06:15 AM 34.9°F1.6°C 37.6°F3.1°C 86% 1.6 mph W2.6 kmh W 1.6 mph2.6 kmh 30.13 in1020.3 mb 0.00 in0.0 mm 0.00 in0.0 mm 0.00 in0.0 mm
06:18 AM 34.8°F1.6°C 37.6°F3.1°C 86% 0.4 mph WNW0.6 kmh WNW 0.4 mph0.6 kmh 30.13 in1020.3 mb 0.00 in0.0 mm 0.00 in0.0 mm 0.00 in0.0 mm
06:21 AM 34.7°F1.5°C 37.3°F2.9°C 86% 2.8 mph NNW4.5 kmh NNW 2.9 mph4.7 kmh 30.13 in1020.3 mb 0.00 in0.0 mm 0.00 in0.0 mm 0.00 in0.0 mm
06:24 AM 34.8°F1.6°C 37.4°F3.0°C 86% 2.0 mph WSW3.2 kmh WSW 2.0 mph3.2 kmh 30.13 in1020.3 mb 0.00 in0.0 mm 0.00 in0.0 mm 0.00 in0.0 mm
06:27 AM 34.8°F1.6°C 37.7°F3.2°C 86% 2.8 mph W4.5 kmh W 2.9 mph4.7 kmh 30.13 in1020.3 mb 0.00 in0.0 mm 0.00 in0.0 mm 0.00 in0.0 mm
06:30 AM 34.8°F1.6°C 37.5°F3.1°C 85% 0.8 mph WNW1.3 kmh WNW 0.8 mph1.3 kmh 30.13 in1020.3 mb 0.00 in0.0 mm 0.00 in0.0 mm 0.00 in0.0 mm
06:33 AM 34.7°F1.5°C 37.5°F3.1°C 86% Calm Calm -- 30.13 in1020.3 mb 0.00 in0.0 mm 0.00 in0.0 mm 0.00 in0.0 mm
06:36 AM 34.7°F1.5°C 37.5°F3.1°C 85% 1.6 mph WNW2.6 kmh WNW 1.6 mph2.6 kmh 30.13 in1020.3 mb 0.00 in0.0 mm 0.00 in0.0 mm 0.00 in0.0 mm
06:39 AM 34.9°F1.6°C 37.8°F3.2°C 86% 3.2 mph SW5.1 kmh SW 3.3 mph5.3 kmh 30.13 in1020.3 mb 0.00 in0.0 mm 0.00 in0.0 mm 0.00 in0.0 mm
06:42 AM 34.8°F1.6°C 37.1°F2.8°C 85% Calm Calm -- 30.13 in1020.3 mb 0.00 in0.0 mm 0.00 in0.0 mm 0.00 in0.0 mm
06:45 AM 34.7°F1.5°C 37.6°F3.1°C 86% Calm Calm -- 30.13 in1020.3 mb 0.00 in0.0 mm 0.00 in0.0 mm 0.00 in0.0 mm
06:51 AM 34.8°F1.6°C 37.9°F3.3°C 86% 4.4 mph W7.1 kmh W 4.4 mph7.1 kmh 30.13 in1020.3 mb 0.00 in0.0 mm 0.00 in0.0 mm 0.00 in0.0 mm
06:54 AM 34.8°F1.6°C 37.4°F3.0°C 86% 2.8 mph W4.5 kmh W 2.8 mph4.5 kmh 30.13 in1020.3 mb 0.00 in0.0 mm 0.00 in0.0 mm 0.00 in0.0 mm
07:00 AM 34.8°F1.6°C 37.3°F2.9°C 86% 3.1 mph W5.0 kmh W 3.1 mph5.0 kmh 30.13 in1020.3 mb 0.00 in0.0 mm 0.00 in0.0 mm 0.00 in0.0 mm
07:01 AM 34.8°F1.6°C 37.6°F3.1°C 86% 5.2 mph W8.4 kmh W 5.2 mph8.4 kmh 30.13 in1020.3 mb 0.00 in0.0 mm 0.00 in0.0 mm 0.00 in0.0 mm
07:04 AM 34.8°F1.6°C 37.5°F3.1°C 86% 4.0 mph W6.4 kmh W 4.1 mph6.6 kmh 30.13 in1020.3 mb 0.00 in0.0 mm 0.00 in0.0 mm 0.00 in0.0 mm
07:10 AM 34.7°F1.5°C 37.3°F2.9°C 85% 6.9 mph NNW11.1 kmh NNW 6.9 mph11.1 kmh 30.12 in1020.0 mb 0.00 in0.0 mm 0.00 in0.0 mm 0.00 in0.0 mm
07:13 AM 34.7°F1.5°C 37.4°F3.0°C 86% 0.4 mph W0.6 kmh W 0.4 mph0.6 kmh 30.13 in1020.3 mb 0.00 in0.0 mm 0.00 in0.0 mm 0.00 in0.0 mm
07:16 AM 34.7°F1.5°C 37.2°F2.9°C 86% 2.4 mph NNW3.9 kmh NNW 2.4 mph3.9 kmh 30.13 in1020.3 mb 0.00 in0.0 mm 0.00 in0.0 mm 0.00 in0.0 mm
07:19 AM 34.7°F1.5°C 37.3°F2.9°C 86% 1.6 mph W2.6 kmh W 1.6 mph2.6 kmh 30.13 in1020.3 mb 0.00 in0.0 mm 0.00 in0.0 mm 0.00 in0.0 mm
07:22 AM 34.7°F1.5°C 37.6°F3.1°C 86% 2.4 mph NNW3.9 kmh NNW 2.4 mph3.9 kmh 30.12 in1020.0 mb 0.00 in0.0 mm 0.00 in0.0 mm 0.00 in0.0 mm
07:25 AM 34.7°F1.5°C 37.5°F3.1°C 86% 0.8 mph NNW1.3 kmh NNW 0.8 mph1.3 kmh 30.13 in1020.3 mb 0.00 in0.0 mm 0.00 in0.0 mm 0.00 in0.0 mm
07:28 AM 34.7°F1.5°C 37.3°F2.9°C 85% Calm Calm -- 30.12 in1020.0 mb 0.00 in0.0 mm 0.00 in0.0 mm 0.00 in0.0 mm
07:31 AM 34.6°F1.4°C 37.1°F2.8°C 86% Calm Calm -- 30.13 in1020.3 mb 0.00 in0.0 mm 0.00 in0.0 mm 0.00 in0.0 mm
07:34 AM 34.7°F1.5°C 37.1°F2.8°C 85% 1.6 mph W2.6 kmh W 1.6 mph2.6 kmh 30.13 in1020.3 mb 0.00 in0.0 mm 0.00 in0.0 mm 0.00 in0.0 mm
07:37 AM 34.6°F1.4°C 37.3°F2.9°C 85% Calm Calm -- 30.13 in1020.3 mb 0.00 in0.0 mm 0.00 in0.0 mm 0.00 in0.0 mm
07:40 AM 34.7°F1.5°C 37.3°F2.9°C 85% 2.4 mph NNW3.9 kmh NNW 2.4 mph3.9 kmh 30.13 in1020.3 mb 0.00 in0.0 mm 0.00 in0.0 mm 0.00 in0.0 mm
07:43 AM 34.7°F1.5°C 37.5°F3.1°C 86% Calm Calm -- 30.13 in1020.3 mb 0.00 in0.0 mm 0.00 in0.0 mm 0.00 in0.0 mm
07:46 AM 34.7°F1.5°C 37.4°F3.0°C 85% Calm Calm -- 30.13 in1020.3 mb 0.00 in0.0 mm 0.00 in0.0 mm 0.00 in0.0 mm
07:49 AM 34.7°F1.5°C 37.5°F3.1°C 86% 3.6 mph W5.8 kmh W 3.7 mph6.0 kmh 30.13 in1020.3 mb 0.00 in0.0 mm 0.00 in0.0 mm 0.00 in0.0 mm
07:52 AM 34.7°F1.5°C 37.2°F2.9°C 86% 4.1 mph WSW6.6 kmh WSW 4.1 mph6.6 kmh 30.13 in1020.3 mb 0.00 in0.0 mm 0.00 in0.0 mm 0.00 in0.0 mm
07:55 AM 34.7°F1.5°C 37.3°F2.9°C 85% 5.7 mph WSW9.2 kmh WSW 5.7 mph9.2 kmh 30.13 in1020.3 mb 0.00 in0.0 mm 0.00 in0.0 mm 0.00 in0.0 mm
07:58 AM 34.7°F1.5°C 37.0°F2.8°C 85% 3.6 mph NW5.8 kmh NW 3.6 mph5.8 kmh 30.13 in1020.3 mb 0.00 in0.0 mm 0.00 in0.0 mm 0.00 in0.0 mm
08:01 AM 34.7°F1.5°C 37.3°F2.9°C 85% 0.4 mph SW0.6 kmh SW 0.4 mph0.6 kmh 30.14 in1020.7 mb 0.00 in0.0 mm 0.00 in0.0 mm 0.00 in0.0 mm
08:04 AM 34.7°F1.5°C 37.2°F2.9°C 85% 7.6 mph NW12.2 kmh NW 7.6 mph12.2 kmh 30.14 in1020.7 mb 0.00 in0.0 mm 0.00 in0.0 mm 0.00 in0.0 mm
08:07 AM 34.7°F1.5°C 37.0°F2.8°C 85% 4.9 mph WSW7.9 kmh WSW 4.9 mph7.9 kmh 30.13 in1020.3 mb 0.00 in0.0 mm 0.00 in0.0 mm 0.00 in0.0 mm
08:10 AM 34.7°F1.5°C 37.1°F2.8°C 85% 2.8 mph W4.5 kmh W 2.9 mph4.7 kmh 30.14 in1020.7 mb 0.00 in0.0 mm 0.00 in0.0 mm 0.00 in0.0 mm
08:13 AM 34.6°F1.4°C 37.2°F2.9°C 85% 2.4 mph W3.9 kmh W 2.4 mph3.9 kmh 30.13 in1020.3 mb 0.00 in0.0 mm 0.00 in0.0 mm 0.00 in0.0 mm
08:16 AM 34.7°F1.5°C 36.7°F2.6°C 84% 4.8 mph SW7.7 kmh SW 4.9 mph7.9 kmh 30.14 in1020.7 mb 0.00 in0.0 mm 0.00 in0.0 mm 0.00 in0.0 mm
08:19 AM 34.6°F1.4°C 36.5°F2.5°C 84% 9.7 mph W15.6 kmh W 9.8 mph15.8 kmh 30.13 in1020.3 mb 0.00 in0.0 mm 0.00 in0.0 mm 0.00 in0.0 mm
08:22 AM 34.7°F1.5°C 36.5°F2.5°C 84% 0.8 mph NW1.3 kmh NW 0.8 mph1.3 kmh 30.14 in1020.7 mb 0.00 in0.0 mm 0.00 in0.0 mm 0.00 in0.0 mm
08:25 AM 34.6°F1.4°C 36.9°F2.7°C 85% 3.2 mph SW5.1 kmh SW 3.3 mph5.3 kmh 30.14 in1020.7 mb 0.00 in0.0 mm 0.00 in0.0 mm 0.00 in0.0 mm
08:28 AM 34.6°F1.4°C 36.7°F2.6°C 84% 2.4 mph SW3.9 kmh SW 2.4 mph3.9 kmh 30.14 in1020.7 mb 0.00 in0.0 mm 0.00 in0.0 mm 0.00 in0.0 mm
08:31 AM 34.6°F1.4°C 36.9°F2.7°C 85% 0.4 mph W0.6 kmh W 0.4 mph0.6 kmh 30.13 in1020.3 mb 0.00 in0.0 mm 0.00 in0.0 mm 0.00 in0.0 mm
08:34 AM 34.6°F1.4°C 36.8°F2.7°C 84% 4.8 mph W7.7 kmh W 4.9 mph7.9 kmh 30.13 in1020.3 mb 0.00 in0.0 mm 0.00 in0.0 mm 0.00 in0.0 mm
08:37 AM 34.6°F1.4°C 37.0°F2.8°C 85% 0.4 mph W0.6 kmh W 0.4 mph0.6 kmh 30.13 in1020.3 mb 0.00 in0.0 mm 0.00 in0.0 mm 0.00 in0.0 mm
08:40 AM 34.6°F1.4°C 36.7°F2.6°C 84% 4.4 mph W7.1 kmh W 4.5 mph7.2 kmh 30.13 in1020.3 mb 0.00 in0.0 mm 0.00 in0.0 mm 0.00 in0.0 mm
08:43 AM 34.7°F1.5°C 36.6°F2.6°C 84% 7.7 mph NNW12.4 kmh NNW 7.7 mph12.4 kmh 30.13 in1020.3 mb 0.00 in0.0 mm 0.00 in0.0 mm 0.00 in0.0 mm
08:46 AM 34.6°F1.4°C 36.8°F2.7°C 85% 0.8 mph NW1.3 kmh NW 0.8 mph1.3 kmh 30.13 in1020.3 mb 0.00 in0.0 mm 0.00 in0.0 mm 0.00 in0.0 mm
08:49 AM 34.6°F1.4°C 36.8°F2.7°C 84% 2.8 mph W4.5 kmh W 2.8 mph4.5 kmh 30.13 in1020.3 mb 0.00 in0.0 mm 0.00 in0.0 mm 0.00 in0.0 mm
08:52 AM 34.6°F1.4°C 36.9°F2.7°C 84% Calm Calm -- 30.13 in1020.3 mb 0.00 in0.0 mm 0.00 in0.0 mm 0.00 in0.0 mm
08:55 AM 34.7°F1.5°C 36.8°F2.7°C 84% Calm Calm -- 30.13 in1020.3 mb 0.00 in0.0 mm 0.00 in0.0 mm 0.00 in0.0 mm
08:58 AM 34.7°F1.5°C 36.8°F2.7°C 84% 0.4 mph SW0.6 kmh SW 0.4 mph0.6 kmh 30.13 in1020.3 mb 0.00 in0.0 mm 0.00 in0.0 mm 0.00 in0.0 mm
09:01 AM 34.7°F1.5°C 36.7°F2.6°C 84% 2.0 mph SW3.2 kmh SW 2.0 mph3.2 kmh 30.13 in1020.3 mb 0.00 in0.0 mm 0.00 in0.0 mm 0.00 in0.0 mm
09:04 AM 34.8°F1.6°C 36.7°F2.6°C 84% 3.2 mph SW5.1 kmh SW 3.3 mph5.3 kmh 30.13 in1020.3 mb 0.00 in0.0 mm 0.00 in0.0 mm 0.00 in0.0 mm
09:07 AM 34.8°F1.6°C 36.9°F2.7°C 85% 2.0 mph W3.2 kmh W 2.0 mph3.2 kmh 30.13 in1020.3 mb 0.00 in0.0 mm 0.00 in0.0 mm 0.00 in0.0 mm
09:10 AM 34.8°F1.6°C 37.0°F2.8°C 84% 2.8 mph SW4.5 kmh SW 2.9 mph4.7 kmh 30.13 in1020.3 mb 0.00 in0.0 mm 0.00 in0.0 mm 0.00 in0.0 mm
09:13 AM 34.8°F1.6°C 36.6°F2.6°C 84% 3.2 mph W5.1 kmh W 3.2 mph5.1 kmh 30.13 in1020.3 mb 0.00 in0.0 mm 0.00 in0.0 mm 0.00 in0.0 mm
09:16 AM 34.7°F1.5°C 36.8°F2.7°C 84% Calm Calm -- 30.13 in1020.3 mb 0.00 in0.0 mm 0.00 in0.0 mm 0.00 in0.0 mm
09:19 AM 34.8°F1.6°C 36.5°F2.5°C 83% 2.8 mph W4.5 kmh W 2.9 mph4.7 kmh 30.13 in1020.3 mb 0.00 in0.0 mm 0.00 in0.0 mm 0.00 in0.0 mm
09:22 AM 34.8°F1.6°C 36.8°F2.7°C 84% 4.8 mph WSW7.7 kmh WSW 4.8 mph7.7 kmh 30.13 in1020.3 mb 0.00 in0.0 mm 0.00 in0.0 mm 0.00 in0.0 mm
09:25 AM 34.8°F1.6°C 36.8°F2.7°C 83% Calm Calm -- 30.13 in1020.3 mb 0.00 in0.0 mm 0.00 in0.0 mm 0.00 in0.0 mm
09:28 AM 34.9°F1.6°C 36.5°F2.5°C 83% 2.4 mph W3.9 kmh W 2.4 mph3.9 kmh 30.13 in1020.3 mb 0.00 in0.0 mm 0.00 in0.0 mm 0.00 in0.0 mm
09:31 AM 34.8°F1.6°C 36.7°F2.6°C 84% 2.0 mph NNW3.2 kmh NNW 2.0 mph3.2 kmh 30.12 in1020.0 mb 0.00 in0.0 mm 0.00 in0.0 mm 0.00 in0.0 mm
09:34 AM 34.8°F1.6°C 36.8°F2.7°C 83% 2.4 mph NNW3.9 kmh NNW 2.4 mph3.9 kmh 30.12 in1020.0 mb 0.00 in0.0 mm 0.00 in0.0 mm 0.00 in0.0 mm
09:37 AM 34.8°F1.6°C 36.8°F2.7°C 84% 4.4 mph SW7.1 kmh SW 4.4 mph7.1 kmh 30.12 in1020.0 mb 0.00 in0.0 mm 0.00 in0.0 mm 0.00 in0.0 mm
09:40 AM 34.8°F1.6°C 36.8°F2.7°C 83% 10.5 mph WSW16.9 kmh WSW 10.6 mph17.1 kmh 30.12 in1020.0 mb 0.00 in0.0 mm 0.00 in0.0 mm 0.00 in0.0 mm
09:43 AM 34.8°F1.6°C 36.2°F2.3°C 83% 8.4 mph W13.5 kmh W 8.4 mph13.5 kmh 30.11 in1019.6 mb 0.00 in0.0 mm 0.00 in0.0 mm 0.00 in0.0 mm
09:46 AM 34.9°F1.6°C 36.4°F2.4°C 83% 4.0 mph W6.4 kmh W 4.1 mph6.6 kmh 30.11 in1019.6 mb 0.00 in0.0 mm 0.00 in0.0 mm 0.00 in0.0 mm
09:49 AM 34.8°F1.6°C 36.6°F2.6°C 83% Calm Calm -- 30.11 in1019.6 mb 0.00 in0.0 mm 0.00 in0.0 mm 0.00 in0.0 mm
09:52 AM 34.8°F1.6°C 36.4°F2.4°C 83% 1.6 mph W2.6 kmh W 1.6 mph2.6 kmh 30.11 in1019.6 mb 0.00 in0.0 mm 0.00 in0.0 mm 0.00 in0.0 mm
09:55 AM 34.8°F1.6°C 36.6°F2.6°C 83% 3.2 mph WSW5.1 kmh WSW 3.3 mph5.3 kmh 30.11 in1019.6 mb 0.00 in0.0 mm 0.00 in0.0 mm 0.00 in0.0 mm
09:58 AM 34.9°F1.6°C 36.5°F2.5°C 82% 3.6 mph SW5.8 kmh SW 3.6 mph5.8 kmh 30.11 in1019.6 mb 0.00 in0.0 mm 0.00 in0.0 mm 0.00 in0.0 mm
10:04 AM 35.0°F1.7°C 36.4°F2.4°C 82% 2.0 mph WSW3.2 kmh WSW 2.0 mph3.2 kmh 30.11 in1019.6 mb 0.00 in0.0 mm 0.00 in0.0 mm 0.00 in0.0 mm
10:07 AM 35.0°F1.7°C 36.4°F2.4°C 82% 4.9 mph SW7.9 kmh SW 4.9 mph7.9 kmh 30.11 in1019.6 mb 0.00 in0.0 mm 0.00 in0.0 mm 0.00 in0.0 mm
10:10 AM 35.2°F1.8°C 36.1°F2.3°C 82% 4.8 mph WSW7.7 kmh WSW 4.9 mph7.9 kmh 30.11 in1019.6 mb 0.00 in0.0 mm 0.00 in0.0 mm 0.00 in0.0 mm
10:13 AM 35.2°F1.8°C 36.8°F2.7°C 83% 4.8 mph W7.7 kmh W 4.9 mph7.9 kmh 30.11 in1019.6 mb 0.00 in0.0 mm 0.00 in0.0 mm 0.00 in0.0 mm
10:16 AM 35.3°F1.8°C 36.6°F2.6°C 83% 4.8 mph W7.7 kmh W 4.9 mph7.9 kmh 30.11 in1019.6 mb 0.00 in0.0 mm 0.00 in0.0 mm 0.00 in0.0 mm
10:19 AM 35.3°F1.8°C 36.7°F2.6°C 83% 2.8 mph W4.5 kmh W 2.9 mph4.7 kmh 30.11 in1019.6 mb 0.00 in0.0 mm 0.00 in0.0 mm 0.00 in0.0 mm
10:22 AM 35.3°F1.8°C 36.6°F2.6°C 83% 2.0 mph W3.2 kmh W 2.0 mph3.2 kmh 30.10 in1019.3 mb 0.00 in0.0 mm 0.00 in0.0 mm 0.00 in0.0 mm
10:25 AM 35.4°F1.9°C 36.7°F2.6°C 82% 0.4 mph W0.6 kmh W 0.4 mph0.6 kmh 30.10 in1019.3 mb 0.00 in0.0 mm 0.00 in0.0 mm 0.00 in0.0 mm
10:28 AM 35.4°F1.9°C 36.5°F2.5°C 83% 2.8 mph WSW4.5 kmh WSW 2.9 mph4.7 kmh 30.10 in1019.3 mb 0.00 in0.0 mm 0.00 in0.0 mm 0.00 in0.0 mm
10:31 AM 35.3°F1.8°C 36.3°F2.4°C 81% 4.9 mph W7.9 kmh W 4.9 mph7.9 kmh 30.10 in1019.3 mb 0.00 in0.0 mm 0.00 in0.0 mm 0.00 in0.0 mm
10:34 AM 35.3°F1.8°C 36.4°F2.4°C 82% 7.3 mph W11.7 kmh W 7.3 mph11.7 kmh 30.10 in1019.3 mb 0.00 in0.0 mm 0.00 in0.0 mm 0.00 in0.0 mm
10:37 AM 35.4°F1.9°C 36.4°F2.4°C 82% 5.6 mph NNW9.0 kmh NNW 5.6 mph9.0 kmh 30.10 in1019.3 mb 0.00 in0.0 mm 0.00 in0.0 mm 0.00 in0.0 mm
10:40 AM 35.3°F1.8°C 36.5°F2.5°C 82% 3.2 mph WNW5.1 kmh WNW 3.2 mph5.1 kmh 30.10 in1019.3 mb 0.00 in0.0 mm 0.00 in0.0 mm 0.00 in0.0 mm
10:43 AM 35.4°F1.9°C 36.3°F2.4°C 82% 4.0 mph WNW6.4 kmh WNW 4.1 mph6.6 kmh 30.10 in1019.3 mb 0.00 in0.0 mm 0.00 in0.0 mm 0.00 in0.0 mm
10:46 AM 35.5°F1.9°C 36.3°F2.4°C 82% 3.6 mph WNW5.8 kmh WNW 3.6 mph5.8 kmh 30.10 in1019.3 mb 0.00 in0.0 mm 0.00 in0.0 mm 0.00 in0.0 mm
10:49 AM 35.5°F1.9°C 36.5°F2.5°C 82% Calm Calm -- 30.10 in1019.3 mb 0.00 in0.0 mm 0.00 in0.0 mm 0.00 in0.0 mm
10:52 AM 35.4°F1.9°C 36.2°F2.3°C 82% 3.2 mph SW5.1 kmh SW 3.2 mph5.1 kmh 30.10 in1019.3 mb 0.00 in0.0 mm 0.00 in0.0 mm 0.00 in0.0 mm
10:55 AM 35.5°F1.9°C 36.4°F2.4°C 82% 2.4 mph WNW3.9 kmh WNW 2.4 mph3.9 kmh 30.09 in1019.0 mb 0.00 in0.0 mm 0.00 in0.0 mm 0.00 in0.0 mm
10:58 AM 35.6°F2.0°C 36.4°F2.4°C 82% 2.0 mph WNW3.2 kmh WNW 2.0 mph3.2 kmh 30.09 in1019.0 mb 0.00 in0.0 mm 0.00 in0.0 mm 0.00 in0.0 mm
11:04 AM 35.8°F2.1°C 36.7°F2.6°C 82% 3.2 mph W5.1 kmh W 3.2 mph5.1 kmh 30.08 in1018.6 mb 0.00 in0.0 mm 0.00 in0.0 mm 0.00 in0.0 mm
11:07 AM 35.9°F2.2°C 36.6°F2.6°C 82% 3.6 mph W5.8 kmh W 3.7 mph6.0 kmh 30.09 in1019.0 mb 0.00 in0.0 mm 0.00 in0.0 mm 0.00 in0.0 mm
11:10 AM 36.1°F2.3°C 36.7°F2.6°C 82% 4.8 mph SW7.7 kmh SW 4.8 mph7.7 kmh 30.08 in1018.6 mb 0.00 in0.0 mm 0.00 in0.0 mm 0.00 in0.0 mm
11:13 AM 36.2°F2.3°C 36.7°F2.6°C 82% 3.6 mph W5.8 kmh W 3.7 mph6.0 kmh 30.08 in1018.6 mb 0.00 in0.0 mm 0.00 in0.0 mm 0.00 in0.0 mm
11:16 AM 36.3°F2.4°C 36.9°F2.7°C 81% 3.2 mph W5.1 kmh W 3.2 mph5.1 kmh 30.08 in1018.6 mb 0.00 in0.0 mm 0.00 in0.0 mm 0.00 in0.0 mm
11:19 AM 36.4°F2.4°C 37.0°F2.8°C 82% Calm Calm -- 30.08 in1018.6 mb 0.00 in0.0 mm 0.00 in0.0 mm 0.00 in0.0 mm
11:22 AM 36.4°F2.4°C 37.2°F2.9°C 82% 2.0 mph WSW3.2 kmh WSW 2.0 mph3.2 kmh 30.08 in1018.6 mb 0.00 in0.0 mm 0.00 in0.0 mm 0.00 in0.0 mm
11:25 AM 36.6°F2.6°C 37.1°F2.8°C 82% 1.6 mph WSW2.6 kmh WSW 1.6 mph2.6 kmh 30.08 in1018.6 mb 0.00 in0.0 mm 0.00 in0.0 mm 0.00 in0.0 mm
11:28 AM 36.4°F2.4°C 36.7°F2.6°C 81% 6.8 mph W10.9 kmh W 6.8 mph10.9 kmh 30.08 in1018.6 mb 0.00 in0.0 mm 0.00 in0.0 mm 0.00 in0.0 mm
11:31 AM 36.7°F2.6°C 36.7°F2.6°C 81% 8.0 mph W12.9 kmh W 8.0 mph12.9 kmh 30.07 in1018.3 mb 0.00 in0.0 mm 0.00 in0.0 mm 0.00 in0.0 mm
11:34 AM 36.6°F2.6°C 36.6°F2.6°C 81% 4.8 mph W7.7 kmh W 4.8 mph7.7 kmh 30.07 in1018.3 mb 0.00 in0.0 mm 0.00 in0.0 mm 0.00 in0.0 mm
11:37 AM 36.6°F2.6°C 37.0°F2.8°C 81% 4.9 mph W7.9 kmh W 4.9 mph7.9 kmh 30.07 in1018.3 mb 0.00 in0.0 mm 0.00 in0.0 mm 0.00 in0.0 mm
11:40 AM 36.6°F2.6°C 36.7°F2.6°C 81% 4.4 mph WSW7.1 kmh WSW 4.4 mph7.1 kmh 30.07 in1018.3 mb 0.00 in0.0 mm 0.00 in0.0 mm 0.00 in0.0 mm
11:43 AM 36.6°F2.6°C 37.2°F2.9°C 81% 5.7 mph W9.2 kmh W 5.7 mph9.2 kmh 30.07 in1018.3 mb 0.00 in0.0 mm 0.00 in0.0 mm 0.00 in0.0 mm
11:46 AM 36.6°F2.6°C 36.7°F2.6°C 81% 5.7 mph W9.2 kmh W 5.7 mph9.2 kmh 30.07 in1018.3 mb 0.00 in0.0 mm 0.00 in0.0 mm 0.00 in0.0 mm
11:49 AM 36.6°F2.6°C 37.1°F2.8°C 81% 4.0 mph NNW6.4 kmh NNW 4.1 mph6.6 kmh 30.07 in1018.3 mb 0.00 in0.0 mm 0.00 in0.0 mm 0.00 in0.0 mm
11:52 AM 36.6°F2.6°C 37.1°F2.8°C 80% 8.5 mph W13.7 kmh W 8.6 mph13.8 kmh 30.06 in1017.9 mb 0.00 in0.0 mm 0.00 in0.0 mm 0.00 in0.0 mm
11:55 AM 36.8°F2.7°C 36.8°F2.7°C 80% 8.1 mph NW13.0 kmh NW 8.2 mph13.2 kmh 30.06 in1017.9 mb 0.00 in0.0 mm 0.00 in0.0 mm 0.00 in0.0 mm
11:58 AM 36.8°F2.7°C 36.8°F2.7°C 80% 4.4 mph W7.1 kmh W 4.4 mph7.1 kmh 30.06 in1017.9 mb 0.00 in0.0 mm 0.00 in0.0 mm 0.00 in0.0 mm
12:04 PM 37.7°F3.2°C 37.1°F2.8°C 81% 6.0 mph WNW9.7 kmh WNW 6.0 mph9.7 kmh 30.06 in1017.9 mb 0.00 in0.0 mm 0.00 in0.0 mm 0.00 in0.0 mm
12:07 PM 38.0°F3.3°C 37.3°F2.9°C 81% 2.8 mph W4.5 kmh W 2.8 mph4.5 kmh 30.06 in1017.9 mb 0.00 in0.0 mm 0.00 in0.0 mm 0.00 in0.0 mm
12:10 PM 37.9°F3.3°C 37.4°F3.0°C 81% 5.2 mph W8.4 kmh W 5.2 mph8.4 kmh 30.06 in1017.9 mb 0.00 in0.0 mm 0.00 in0.0 mm 0.00 in0.0 mm
12:13 PM 38.1°F3.4°C 37.4°F3.0°C 81% 2.8 mph NNW4.5 kmh NNW 2.8 mph4.5 kmh 30.06 in1017.9 mb 0.00 in0.0 mm 0.00 in0.0 mm 0.00 in0.0 mm
12:16 PM 38.2°F3.4°C 37.5°F3.1°C 80% 4.9 mph W7.9 kmh W 4.9 mph7.9 kmh 30.05 in1017.6 mb 0.00 in0.0 mm 0.00 in0.0 mm 0.00 in0.0 mm
12:19 PM 38.1°F3.4°C 37.7°F3.2°C 81% 4.8 mph W7.7 kmh W 4.9 mph7.9 kmh 30.06 in1017.9 mb 0.00 in0.0 mm 0.00 in0.0 mm 0.00 in0.0 mm
12:22 PM 37.4°F3.0°C 37.2°F2.9°C 79% 7.7 mph WSW12.4 kmh WSW 7.7 mph12.4 kmh 30.05 in1017.6 mb 0.00 in0.0 mm 0.00 in0.0 mm 0.00 in0.0 mm
12:25 PM 37.4°F3.0°C 36.9°F2.7°C 79% 8.5 mph NW13.7 kmh NW 8.5 mph13.7 kmh 30.05 in1017.6 mb 0.00 in0.0 mm 0.00 in0.0 mm 0.00 in0.0 mm
12:28 PM 37.1°F2.8°C 36.9°F2.7°C 79% 5.6 mph W9.0 kmh W 5.7 mph9.2 kmh 30.05 in1017.6 mb 0.00 in0.0 mm 0.00 in0.0 mm 0.00 in0.0 mm
12:31 PM 37.1°F2.8°C 36.7°F2.6°C 79% 6.0 mph WSW9.7 kmh WSW 6.0 mph9.7 kmh 30.05 in1017.6 mb 0.00 in0.0 mm 0.00 in0.0 mm 0.00 in0.0 mm
12:34 PM 37.1°F2.8°C 36.8°F2.7°C 79% Calm Calm -- 30.05 in1017.6 mb 0.00 in0.0 mm 0.00 in0.0 mm 0.00 in0.0 mm
12:37 PM 37.2°F2.9°C 37.1°F2.8°C 80% 2.4 mph NNW3.9 kmh NNW 2.4 mph3.9 kmh 30.04 in1017.3 mb 0.00 in0.0 mm 0.00 in0.0 mm 0.00 in0.0 mm
12:40 PM 37.1°F2.8°C 37.2°F2.9°C 80% 0.4 mph W0.6 kmh W 0.4 mph0.6 kmh 30.04 in1017.3 mb 0.00 in0.0 mm 0.00 in0.0 mm 0.00 in0.0 mm
12:43 PM 37.1°F2.8°C 37.1°F2.8°C 80% 3.2 mph W5.1 kmh W 3.3 mph5.3 kmh 30.04 in1017.3 mb 0.00 in0.0 mm 0.00 in0.0 mm 0.00 in0.0 mm
12:46 PM 37.2°F2.9°C 37.1°F2.8°C 79% 2.8 mph W4.5 kmh W 2.8 mph4.5 kmh 30.04 in1017.3 mb 0.00 in0.0 mm 0.00 in0.0 mm 0.00 in0.0 mm
12:49 PM 36.8°F2.7°C 37.0°F2.8°C 79% 3.6 mph NW5.8 kmh NW 3.6 mph5.8 kmh 30.03 in1016.9 mb 0.00 in0.0 mm 0.00 in0.0 mm 0.00 in0.0 mm
12:52 PM 37.0°F2.8°C 37.6°F3.1°C 80% 2.4 mph W3.9 kmh W 2.4 mph3.9 kmh 30.04 in1017.3 mb 0.00 in0.0 mm 0.00 in0.0 mm 0.00 in0.0 mm
12:55 PM 36.8°F2.7°C 37.7°F3.2°C 81% 4.8 mph NNW7.7 kmh NNW 4.9 mph7.9 kmh 30.03 in1016.9 mb 0.00 in0.0 mm 0.00 in0.0 mm 0.00 in0.0 mm
12:58 PM 36.7°F2.6°C 37.2°F2.9°C 80% 2.4 mph WSW3.9 kmh WSW 2.5 mph4.0 kmh 30.03 in1016.9 mb 0.00 in0.0 mm 0.00 in0.0 mm 0.00 in0.0 mm
01:01 PM 36.6°F2.6°C 37.6°F3.1°C 81% 4.4 mph WNW7.1 kmh WNW 4.5 mph7.2 kmh 30.03 in1016.9 mb 0.00 in0.0 mm 0.00 in0.0 mm 0.00 in0.0 mm
01:04 PM 36.7°F2.6°C 37.5°F3.1°C 81% 4.9 mph W7.9 kmh W 4.9 mph7.9 kmh 30.03 in1016.9 mb 0.00 in0.0 mm 0.00 in0.0 mm 0.00 in0.0 mm
01:07 PM 36.6°F2.6°C 37.6°F3.1°C 81% 2.4 mph W3.9 kmh W 2.4 mph3.9 kmh 30.03 in1016.9 mb 0.00 in0.0 mm 0.00 in0.0 mm 0.00 in0.0 mm
01:10 PM 36.4°F2.4°C 37.4°F3.0°C 81% 6.1 mph WNW9.8 kmh WNW 6.1 mph9.8 kmh 30.03 in1016.9 mb 0.00 in0.0 mm 0.00 in0.0 mm 0.00 in0.0 mm
01:13 PM 36.5°F2.5°C 37.5°F3.1°C 82% 5.3 mph W8.5 kmh W 5.3 mph8.5 kmh 30.02 in1016.6 mb 0.00 in0.0 mm 0.00 in0.0 mm 0.00 in0.0 mm
01:16 PM 36.5°F2.5°C 37.8°F3.2°C 82% 2.4 mph W3.9 kmh W 2.4 mph3.9 kmh 30.02 in1016.6 mb 0.00 in0.0 mm 0.00 in0.0 mm 0.00 in0.0 mm
01:19 PM 36.5°F2.5°C 37.3°F2.9°C 81% 2.0 mph SW3.2 kmh SW 2.0 mph3.2 kmh 30.02 in1016.6 mb 0.00 in0.0 mm 0.00 in0.0 mm 0.00 in0.0 mm
01:22 PM 36.4°F2.4°C 37.9°F3.3°C 82% 2.4 mph W3.9 kmh W 2.4 mph3.9 kmh 30.01 in1016.3 mb 0.00 in0.0 mm 0.00 in0.0 mm 0.00 in0.0 mm
01:25 PM 36.4°F2.4°C 37.8°F3.2°C 82% 2.4 mph SSW3.9 kmh SSW 2.4 mph3.9 kmh 30.01 in1016.3 mb 0.00 in0.0 mm 0.00 in0.0 mm 0.00 in0.0 mm
01:28 PM 36.4°F2.4°C 38.1°F3.4°C 83% 2.8 mph W4.5 kmh W 2.8 mph4.5 kmh 30.01 in1016.3 mb 0.00 in0.0 mm 0.00 in0.0 mm 0.00 in0.0 mm
01:31 PM 36.4°F2.4°C 38.2°F3.4°C 83% 3.2 mph SW5.1 kmh SW 3.3 mph5.3 kmh 30.01 in1016.3 mb 0.00 in0.0 mm 0.00 in0.0 mm 0.00 in0.0 mm
01:34 PM 36.4°F2.4°C 38.1°F3.4°C 83% 4.4 mph WSW7.1 kmh WSW 4.5 mph7.2 kmh 30.01 in1016.3 mb 0.00 in0.0 mm 0.00 in0.0 mm 0.00 in0.0 mm
01:37 PM 36.4°F2.4°C 38.1°F3.4°C 83% 4.0 mph SW6.4 kmh SW 4.1 mph6.6 kmh 30.00 in1015.9 mb 0.00 in0.0 mm 0.00 in0.0 mm 0.00 in0.0 mm
01:40 PM 36.5°F2.5°C 37.9°F3.3°C 84% 5.7 mph W9.2 kmh W 5.7 mph9.2 kmh 30.00 in1015.9 mb 0.00 in0.0 mm 0.00 in0.0 mm 0.00 in0.0 mm
01:43 PM 36.5°F2.5°C 38.4°F3.6°C 84% 3.2 mph WSW5.1 kmh WSW 3.2 mph5.1 kmh 30.00 in1015.9 mb 0.00 in0.0 mm 0.00 in0.0 mm 0.00 in0.0 mm
01:46 PM 36.5°F2.5°C 38.0°F3.3°C 83% 8.0 mph WSW12.9 kmh WSW 8.0 mph12.9 kmh 30.00 in1015.9 mb 0.00 in0.0 mm 0.00 in0.0 mm 0.00 in0.0 mm
01:49 PM 36.3°F2.4°C 38.4°F3.6°C 84% 3.6 mph W5.8 kmh W 3.6 mph5.8 kmh 29.99 in1015.6 mb 0.00 in0.0 mm 0.00 in0.0 mm 0.00 in0.0 mm
01:52 PM 36.3°F2.4°C 38.3°F3.5°C 84% Calm Calm -- 29.98 in1015.2 mb 0.00 in0.0 mm 0.00 in0.0 mm 0.00 in0.0 mm
01:55 PM 36.2°F2.3°C 38.6°F3.7°C 85% 2.4 mph SW3.9 kmh SW 2.4 mph3.9 kmh 29.98 in1015.2 mb 0.00 in0.0 mm 0.00 in0.0 mm 0.00 in0.0 mm
01:58 PM 35.9°F2.2°C 38.3°F3.5°C 85% 4.4 mph SW7.1 kmh SW 4.5 mph7.2 kmh 29.98 in1015.2 mb 0.00 in0.0 mm 0.00 in0.0 mm 0.00 in0.0 mm
02:01 PM 36.1°F2.3°C 38.5°F3.6°C 85% 4.5 mph WSW7.2 kmh WSW 4.5 mph7.2 kmh 29.98 in1015.2 mb 0.00 in0.0 mm 0.00 in0.0 mm 0.00 in0.0 mm
02:04 PM 35.7°F2.1°C 38.6°F3.7°C 86% 8.5 mph W13.7 kmh W 8.6 mph13.8 kmh 29.98 in1015.2 mb 0.00 in0.0 mm 0.00 in0.0 mm 0.00 in0.0 mm
02:07 PM 35.6°F2.0°C 38.8°F3.8°C 87% 3.2 mph WSW5.1 kmh WSW 3.3 mph5.3 kmh 29.98 in1015.2 mb 0.00 in0.0 mm 0.00 in0.0 mm 0.00 in0.0 mm
02:10 PM 35.5°F1.9°C 38.3°F3.5°C 86% 2.0 mph NNW3.2 kmh NNW 2.0 mph3.2 kmh 29.98 in1015.2 mb 0.00 in0.0 mm 0.00 in0.0 mm 0.00 in0.0 mm
02:13 PM 35.4°F1.9°C 38.5°F3.6°C 87% 6.0 mph SW9.7 kmh SW 6.0 mph9.7 kmh 29.98 in1015.2 mb 0.00 in0.0 mm 0.00 in0.0 mm 0.00 in0.0 mm
02:16 PM 35.3°F1.8°C 38.2°F3.4°C 86% 5.2 mph NNW8.4 kmh NNW 5.2 mph8.4 kmh 29.98 in1015.2 mb 0.00 in0.0 mm 0.00 in0.0 mm 0.00 in0.0 mm
02:19 PM 35.2°F1.8°C 38.4°F3.6°C 87% 5.2 mph NNW8.4 kmh NNW 5.3 mph8.5 kmh 29.98 in1015.2 mb 0.00 in0.0 mm 0.00 in0.0 mm 0.00 in0.0 mm
02:22 PM 35.2°F1.8°C 38.2°F3.4°C 87% Calm Calm -- 29.98 in1015.2 mb 0.00 in0.0 mm 0.00 in0.0 mm 0.02 in0.5 mm
02:25 PM 34.9°F1.6°C 38.4°F3.6°C 87% 0.8 mph NNW1.3 kmh NNW 0.8 mph1.3 kmh 29.97 in1014.9 mb 0.00 in0.0 mm 0.00 in0.0 mm 0.02 in0.5 mm
02:28 PM 34.9°F1.6°C 38.4°F3.6°C 86% 2.8 mph W4.5 kmh W 2.8 mph4.5 kmh 29.97 in1014.9 mb 0.00 in0.0 mm 0.00 in0.0 mm 0.02 in0.5 mm
02:31 PM 34.7°F1.5°C 38.5°F3.6°C 87% 4.8 mph SW7.7 kmh SW 4.8 mph7.7 kmh 29.97 in1014.9 mb 0.00 in0.0 mm 0.00 in0.0 mm 0.02 in0.5 mm
02:34 PM 34.7°F1.5°C 38.3°F3.5°C 87% 3.2 mph SW5.1 kmh SW 3.3 mph5.3 kmh 29.97 in1014.9 mb 0.00 in0.0 mm 0.00 in0.0 mm 0.02 in0.5 mm
02:37 PM 34.6°F1.4°C 38.2°F3.4°C 87% 3.6 mph SW5.8 kmh SW 3.6 mph5.8 kmh 29.96 in1014.6 mb 0.00 in0.0 mm 0.00 in0.0 mm 0.02 in0.5 mm
02:40 PM 34.5°F1.4°C 37.9°F3.3°C 87% 0.8 mph NNW1.3 kmh NNW 0.8 mph1.3 kmh 29.96 in1014.6 mb 0.00 in0.0 mm 0.00 in0.0 mm 0.02 in0.5 mm
02:43 PM 34.5°F1.4°C 38.2°F3.4°C 87% 1.2 mph S1.9 kmh S 1.2 mph1.9 kmh 29.96 in1014.6 mb 0.00 in0.0 mm 0.00 in0.0 mm 0.02 in0.5 mm
02:46 PM 34.4°F1.3°C 37.9°F3.3°C 87% Calm Calm -- 29.96 in1014.6 mb 0.00 in0.0 mm 0.00 in0.0 mm 0.04 in1.0 mm
02:49 PM 34.3°F1.3°C 38.2°F3.4°C 87% 1.6 mph WSW2.6 kmh WSW 1.6 mph2.6 kmh 29.96 in1014.6 mb 0.00 in0.0 mm 0.00 in0.0 mm 0.04 in1.0 mm
02:52 PM 34.3°F1.3°C 38.0°F3.3°C 87% 0.4 mph SW0.6 kmh SW 0.4 mph0.6 kmh 29.96 in1014.6 mb 0.00 in0.0 mm 0.00 in0.0 mm 0.04 in1.0 mm
02:55 PM 34.5°F1.4°C 37.9°F3.3°C 87% 2.4 mph SW3.9 kmh SW 2.4 mph3.9 kmh 29.96 in1014.6 mb 0.00 in0.0 mm 0.00 in0.0 mm 0.04 in1.0 mm
02:58 PM 34.5°F1.4°C 38.2°F3.4°C 88% 1.6 mph SW2.6 kmh SW 1.6 mph2.6 kmh 29.96 in1014.6 mb 0.00 in0.0 mm 0.00 in0.0 mm 0.04 in1.0 mm
03:04 PM 34.5°F1.4°C 38.1°F3.4°C 88% 5.3 mph SW8.5 kmh SW 5.3 mph8.5 kmh 29.96 in1014.6 mb 0.00 in0.0 mm 0.00 in0.0 mm 0.04 in1.0 mm
03:07 PM 34.6°F1.4°C 37.9°F3.3°C 87% 2.4 mph WSW3.9 kmh WSW 2.4 mph3.9 kmh 29.95 in1014.2 mb 0.00 in0.0 mm 0.00 in0.0 mm 0.06 in1.5 mm
03:10 PM 34.7°F1.5°C 38.4°F3.6°C 89% 6.1 mph WSW9.8 kmh WSW 6.1 mph9.8 kmh 29.95 in1014.2 mb 0.00 in0.0 mm 0.00 in0.0 mm 0.06 in1.5 mm
03:13 PM 34.7°F1.5°C 37.9°F3.3°C 87% 2.8 mph WSW4.5 kmh WSW 2.9 mph4.7 kmh 29.95 in1014.2 mb 0.00 in0.0 mm 0.00 in0.0 mm 0.06 in1.5 mm
03:16 PM 34.7°F1.5°C 38.4°F3.6°C 89% 1.2 mph WSW1.9 kmh WSW 1.2 mph1.9 kmh 29.94 in1013.9 mb 0.00 in0.0 mm 0.00 in0.0 mm 0.06 in1.5 mm
03:19 PM 34.7°F1.5°C 38.4°F3.6°C 89% 4.0 mph SW6.4 kmh SW 4.0 mph6.4 kmh 29.94 in1013.9 mb 0.00 in0.0 mm 0.00 in0.0 mm 0.06 in1.5 mm
03:25 PM 34.7°F1.5°C 38.4°F3.6°C 89% 4.0 mph W6.4 kmh W 4.0 mph6.4 kmh 29.94 in1013.9 mb 0.00 in0.0 mm 0.00 in0.0 mm 0.08 in2.0 mm
03:28 PM 34.8°F1.6°C 38.6°F3.7°C 89% 5.7 mph W9.2 kmh W 5.7 mph9.2 kmh 29.94 in1013.9 mb 0.00 in0.0 mm 0.00 in0.0 mm 0.08 in2.0 mm
03:31 PM 34.8°F1.6°C 38.7°F3.7°C 90% 5.6 mph NNW9.0 kmh NNW 5.6 mph9.0 kmh 29.94 in1013.9 mb 0.00 in0.0 mm 0.00 in0.0 mm 0.08 in2.0 mm
03:34 PM 34.8°F1.6°C 38.5°F3.6°C 89% 1.6 mph WSW2.6 kmh WSW 1.6 mph2.6 kmh 29.94 in1013.9 mb 0.00 in0.0 mm 0.00 in0.0 mm 0.08 in2.0 mm
03:37 PM 34.8°F1.6°C 38.6°F3.7°C 89% 3.2 mph WSW5.1 kmh WSW 3.2 mph5.1 kmh 29.94 in1013.9 mb 0.00 in0.0 mm 0.00 in0.0 mm 0.08 in2.0 mm
03:40 PM 34.7°F1.5°C 38.5°F3.6°C 89% 2.4 mph NNW3.9 kmh NNW 2.4 mph3.9 kmh 29.93 in1013.5 mb 0.00 in0.0 mm 0.00 in0.0 mm 0.10 in2.5 mm
03:43 PM 34.7°F1.5°C 38.7°F3.7°C 89% 2.4 mph WNW3.9 kmh WNW 2.4 mph3.9 kmh 29.94 in1013.9 mb 0.00 in0.0 mm 0.00 in0.0 mm 0.10 in2.5 mm
03:46 PM 34.8°F1.6°C 38.4°F3.6°C 89% 1.6 mph SSW2.6 kmh SSW 1.6 mph2.6 kmh 29.93 in1013.5 mb 0.00 in0.0 mm 0.00 in0.0 mm 0.10 in2.5 mm
03:49 PM 34.8°F1.6°C 38.7°F3.7°C 89% 0.4 mph W0.6 kmh W 0.4 mph0.6 kmh 29.93 in1013.5 mb 0.00 in0.0 mm 0.00 in0.0 mm 0.10 in2.5 mm
03:52 PM 34.7°F1.5°C 38.3°F3.5°C 89% Calm Calm -- 29.93 in1013.5 mb 0.00 in0.0 mm 0.00 in0.0 mm 0.10 in2.5 mm
03:55 PM 34.7°F1.5°C 38.5°F3.6°C 89% 4.0 mph NNW6.4 kmh NNW 4.1 mph6.6 kmh 29.93 in1013.5 mb 0.00 in0.0 mm 0.00 in0.0 mm 0.10 in2.5 mm
03:58 PM 34.7°F1.5°C 38.6°F3.7°C 89% 1.6 mph WSW2.6 kmh WSW 1.6 mph2.6 kmh 29.93 in1013.5 mb 0.00 in0.0 mm 0.00 in0.0 mm 0.12 in3.0 mm
04:04 PM 34.6°F1.4°C 38.4°F3.6°C 89% 2.8 mph SW4.5 kmh SW 2.8 mph4.5 kmh 29.93 in1013.5 mb 0.00 in0.0 mm 0.00 in0.0 mm 0.12 in3.0 mm
04:07 PM 34.7°F1.5°C 38.7°F3.7°C 90% 2.8 mph SW4.5 kmh SW 2.9 mph4.7 kmh 29.93 in1013.5 mb 0.00 in0.0 mm 0.00 in0.0 mm 0.12 in3.0 mm
04:10 PM 34.7°F1.5°C 38.6°F3.7°C 90% 4.8 mph W7.7 kmh W 4.8 mph7.7 kmh 29.92 in1013.2 mb 0.00 in0.0 mm 0.00 in0.0 mm 0.12 in3.0 mm
04:13 PM 34.7°F1.5°C 38.6°F3.7°C 90% 8.4 mph NNW13.5 kmh NNW 8.4 mph13.5 kmh 29.92 in1013.2 mb 0.00 in0.0 mm 0.00 in0.0 mm 0.14 in3.6 mm
04:16 PM 34.7°F1.5°C 38.2°F3.4°C 89% 2.8 mph WSW4.5 kmh WSW 2.8 mph4.5 kmh 29.91 in1012.9 mb 0.00 in0.0 mm 0.00 in0.0 mm 0.14 in3.6 mm
04:19 PM 34.7°F1.5°C 38.5°F3.6°C 90% 0.4 mph W0.6 kmh W 0.4 mph0.6 kmh 29.91 in1012.9 mb 0.00 in0.0 mm 0.00 in0.0 mm 0.14 in3.6 mm
04:22 PM 34.6°F1.4°C 38.4°F3.6°C 89% 0.4 mph W0.6 kmh W 0.4 mph0.6 kmh 29.91 in1012.9 mb 0.00 in0.0 mm 0.00 in0.0 mm 0.14 in3.6 mm
04:25 PM 34.5°F1.4°C 38.5°F3.6°C 90% 4.0 mph NNW6.4 kmh NNW 4.1 mph6.6 kmh 29.91 in1012.9 mb 0.00 in0.0 mm 0.00 in0.0 mm 0.14 in3.6 mm
04:28 PM 34.5°F1.4°C 38.3°F3.5°C 90% 5.2 mph WSW8.4 kmh WSW 5.2 mph8.4 kmh 29.91 in1012.9 mb 0.00 in0.0 mm 0.00 in0.0 mm 0.14 in3.6 mm
04:31 PM 34.4°F1.3°C 38.4°F3.6°C 90% 3.2 mph SW5.1 kmh SW 3.2 mph5.1 kmh 29.91 in1012.9 mb 0.00 in0.0 mm 0.00 in0.0 mm 0.16 in4.1 mm
04:34 PM 34.4°F1.3°C 38.3°F3.5°C 89% 6.4 mph W10.3 kmh W 6.4 mph10.3 kmh 29.91 in1012.9 mb 0.00 in0.0 mm 0.00 in0.0 mm 0.16 in4.1 mm
04:37 PM 34.5°F1.4°C 38.3°F3.5°C 89% 4.5 mph SW7.2 kmh SW 4.5 mph7.2 kmh 29.91 in1012.9 mb 0.00 in0.0 mm 0.00 in0.0 mm 0.16 in4.1 mm
04:40 PM 34.3°F1.3°C 38.4°F3.6°C 90% 6.9 mph W11.1 kmh W 6.9 mph11.1 kmh 29.91 in1012.9 mb 0.00 in0.0 mm 0.00 in0.0 mm 0.16 in4.1 mm
04:43 PM 34.4°F1.3°C 38.3°F3.5°C 90% 2.4 mph NNW3.9 kmh NNW 2.4 mph3.9 kmh 29.91 in1012.9 mb 0.00 in0.0 mm 0.00 in0.0 mm 0.18 in4.6 mm
04:46 PM 34.4°F1.3°C 38.3°F3.5°C 90% 2.4 mph SW3.9 kmh SW 2.4 mph3.9 kmh 29.91 in1012.9 mb 0.00 in0.0 mm 0.00 in0.0 mm 0.18 in4.6 mm
04:49 PM 34.4°F1.3°C 38.3°F3.5°C 90% 1.2 mph WSW1.9 kmh WSW 1.2 mph1.9 kmh 29.91 in1012.9 mb 0.00 in0.0 mm 0.00 in0.0 mm 0.18 in4.6 mm
04:52 PM 34.4°F1.3°C 38.4°F3.6°C 90% 3.2 mph W5.1 kmh W 3.2 mph5.1 kmh 29.91 in1012.9 mb 0.00 in0.0 mm 0.00 in0.0 mm 0.18 in4.6 mm
04:55 PM 34.3°F1.3°C 38.1°F3.4°C 90% 4.8 mph WSW7.7 kmh WSW 4.9 mph7.9 kmh 29.90 in1012.5 mb 0.00 in0.0 mm 0.00 in0.0 mm 0.20 in5.1 mm
04:58 PM 34.3°F1.3°C 38.5°F3.6°C 90% 3.2 mph SW5.1 kmh SW 3.2 mph5.1 kmh 29.90 in1012.5 mb 0.00 in0.0 mm 0.00 in0.0 mm 0.20 in5.1 mm
05:01 PM 34.1°F1.2°C 38.4°F3.6°C 90% 4.0 mph W6.4 kmh W 4.0 mph6.4 kmh 29.90 in1012.5 mb 0.00 in0.0 mm 0.00 in0.0 mm 0.20 in5.1 mm
05:04 PM 34.0°F1.1°C 38.2°F3.4°C 90% 3.6 mph NNW5.8 kmh NNW 3.7 mph6.0 kmh 29.90 in1012.5 mb 0.00 in0.0 mm 0.00 in0.0 mm 0.20 in5.1 mm
05:07 PM 34.1°F1.2°C 38.5°F3.6°C 90% 2.8 mph NNW4.5 kmh NNW 2.8 mph4.5 kmh 29.90 in1012.5 mb 0.00 in0.0 mm 0.00 in0.0 mm 0.22 in5.6 mm
05:10 PM 34.1°F1.2°C 38.1°F3.4°C 90% 2.8 mph SW4.5 kmh SW 2.9 mph4.7 kmh 29.90 in1012.5 mb 0.00 in0.0 mm 0.00 in0.0 mm 0.22 in5.6 mm
05:13 PM 34.1°F1.2°C 38.2°F3.4°C 90% Calm Calm -- 29.89 in1012.2 mb 0.00 in0.0 mm 0.00 in0.0 mm 0.22 in5.6 mm
05:16 PM 34.1°F1.2°C 38.1°F3.4°C 90% 2.8 mph SW4.5 kmh SW 2.8 mph4.5 kmh 29.90 in1012.5 mb 0.00 in0.0 mm 0.00 in0.0 mm 0.22 in5.6 mm
05:19 PM 34.3°F1.3°C 38.1°F3.4°C 90% 2.8 mph SW4.5 kmh SW 2.8 mph4.5 kmh 29.89 in1012.2 mb 0.00 in0.0 mm 0.00 in0.0 mm 0.22 in5.6 mm
05:22 PM 34.1°F1.2°C 38.3°F3.5°C 90% 5.3 mph SW8.5 kmh SW 5.3 mph8.5 kmh 29.89 in1012.2 mb 0.00 in0.0 mm 0.00 in0.0 mm 0.22 in5.6 mm
05:25 PM 34.1°F1.2°C 38.2°F3.4°C 90% 0.4 mph WSW0.6 kmh WSW 0.4 mph0.6 kmh 29.89 in1012.2 mb 0.00 in0.0 mm 0.00 in0.0 mm 0.24 in6.1 mm
05:28 PM 34.1°F1.2°C 38.2°F3.4°C 90% 2.0 mph SW3.2 kmh SW 2.0 mph3.2 kmh 29.89 in1012.2 mb 0.00 in0.0 mm 0.00 in0.0 mm 0.24 in6.1 mm
05:31 PM 34.3°F1.3°C 38.2°F3.4°C 90% 3.6 mph SW5.8 kmh SW 3.7 mph6.0 kmh 29.89 in1012.2 mb 0.00 in0.0 mm 0.00 in0.0 mm 0.24 in6.1 mm
05:34 PM 34.3°F1.3°C 38.3°F3.5°C 90% 2.4 mph SW3.9 kmh SW 2.4 mph3.9 kmh 29.89 in1012.2 mb 0.00 in0.0 mm 0.00 in0.0 mm 0.24 in6.1 mm
05:37 PM 34.4°F1.3°C 38.3°F3.5°C 91% 2.8 mph WSW4.5 kmh WSW 2.8 mph4.5 kmh 29.89 in1012.2 mb 0.00 in0.0 mm 0.00 in0.0 mm 0.26 in6.6 mm
05:40 PM 34.4°F1.3°C 38.1°F3.4°C 90% 1.6 mph W2.6 kmh W 1.6 mph2.6 kmh 29.89 in1012.2 mb 0.00 in0.0 mm 0.00 in0.0 mm 0.26 in6.6 mm
05:43 PM 34.4°F1.3°C 38.0°F3.3°C 90% 4.8 mph SW7.7 kmh SW 4.8 mph7.7 kmh 29.89 in1012.2 mb 0.00 in0.0 mm 0.00 in0.0 mm 0.26 in6.6 mm
05:46 PM 34.5°F1.4°C 38.4°F3.6°C 90% 2.8 mph WSW4.5 kmh WSW 2.8 mph4.5 kmh 29.88 in1011.9 mb 0.00 in0.0 mm 0.00 in0.0 mm 0.26 in6.6 mm
05:49 PM 34.4°F1.3°C 38.3°F3.5°C 91% 3.2 mph WSW5.1 kmh WSW 3.3 mph5.3 kmh 29.89 in1012.2 mb 0.00 in0.0 mm 0.00 in0.0 mm 0.26 in6.6 mm
05:52 PM 34.5°F1.4°C 38.3°F3.5°C 90% 3.2 mph W5.1 kmh W 3.3 mph5.3 kmh 29.88 in1011.9 mb 0.00 in0.0 mm 0.00 in0.0 mm 0.26 in6.6 mm
05:55 PM 34.5°F1.4°C 38.5°F3.6°C 91% 0.8 mph WSW1.3 kmh WSW 0.8 mph1.3 kmh 29.89 in1012.2 mb 0.00 in0.0 mm 0.00 in0.0 mm 0.28 in7.1 mm
05:58 PM 34.5°F1.4°C 38.4°F3.6°C 90% 3.6 mph WSW5.8 kmh WSW 3.6 mph5.8 kmh 29.88 in1011.9 mb 0.00 in0.0 mm 0.00 in0.0 mm 0.28 in7.1 mm
06:01 PM 34.7°F1.5°C 38.4°F3.6°C 91% 2.8 mph WSW4.5 kmh WSW 2.8 mph4.5 kmh 29.88 in1011.9 mb 0.00 in0.0 mm 0.00 in0.0 mm 0.28 in7.1 mm
06:04 PM 34.7°F1.5°C 38.8°F3.8°C 91% 1.6 mph WSW2.6 kmh WSW 1.6 mph2.6 kmh 29.88 in1011.9 mb 0.00 in0.0 mm 0.00 in0.0 mm 0.28 in7.1 mm
06:07 PM 34.7°F1.5°C 38.8°F3.8°C 91% 1.2 mph W1.9 kmh W 1.2 mph1.9 kmh 29.88 in1011.9 mb 0.00 in0.0 mm 0.00 in0.0 mm 0.30 in7.6 mm
06:10 PM 34.7°F1.5°C 38.6°F3.7°C 91% Calm Calm -- 29.87 in1011.5 mb 0.00 in0.0 mm 0.00 in0.0 mm 0.30 in7.6 mm
06:13 PM 34.8°F1.6°C 38.7°F3.7°C 91% 1.2 mph W1.9 kmh W 1.2 mph1.9 kmh 29.87 in1011.5 mb 0.00 in0.0 mm 0.00 in0.0 mm 0.30 in7.6 mm
06:16 PM 34.8°F1.6°C 38.8°F3.8°C 91% Calm Calm -- 29.87 in1011.5 mb 0.00 in0.0 mm 0.00 in0.0 mm 0.30 in7.6 mm
06:19 PM 34.9°F1.6°C 38.9°F3.8°C 91% 3.6 mph W5.8 kmh W 3.6 mph5.8 kmh 29.87 in1011.5 mb 0.00 in0.0 mm 0.00 in0.0 mm 0.32 in8.1 mm
06:22 PM 34.9°F1.6°C 38.5°F3.6°C 90% 0.8 mph SW1.3 kmh SW 0.8 mph1.3 kmh 29.87 in1011.5 mb 0.00 in0.0 mm 0.00 in0.0 mm 0.32 in8.1 mm
06:25 PM 34.9°F1.6°C 38.9°F3.8°C 91% Calm Calm -- 29.87 in1011.5 mb 0.00 in0.0 mm 0.00 in0.0 mm 0.32 in8.1 mm
06:28 PM 34.9°F1.6°C 38.7°F3.7°C 91% Calm Calm -- 29.87 in1011.5 mb 0.00 in0.0 mm 0.00 in0.0 mm 0.32 in8.1 mm
06:31 PM 35.2°F1.8°C 39.2°F4.0°C 91% 4.0 mph NNW6.4 kmh NNW 4.1 mph6.6 kmh 29.87 in1011.5 mb 0.00 in0.0 mm 0.00 in0.0 mm 0.34 in8.6 mm
06:34 PM 35.3°F1.8°C 38.8°F3.8°C 91% 2.4 mph W3.9 kmh W 2.5 mph4.0 kmh 29.87 in1011.5 mb 0.00 in0.0 mm 0.00 in0.0 mm 0.34 in8.6 mm
06:37 PM 35.4°F1.9°C 39.1°F3.9°C 92% 5.2 mph SW8.4 kmh SW 5.2 mph8.4 kmh 29.87 in1011.5 mb 0.00 in0.0 mm 0.00 in0.0 mm 0.34 in8.6 mm
06:40 PM 35.5°F1.9°C 38.8°F3.8°C 91% 1.6 mph SW2.6 kmh SW 1.6 mph2.6 kmh 29.86 in1011.2 mb 0.00 in0.0 mm 0.00 in0.0 mm 0.34 in8.6 mm
06:43 PM 35.5°F1.9°C 39.2°F4.0°C 92% 4.8 mph WSW7.7 kmh WSW 4.9 mph7.9 kmh 29.86 in1011.2 mb 0.00 in0.0 mm 0.00 in0.0 mm 0.36 in9.1 mm
06:46 PM 35.4°F1.9°C 39.2°F4.0°C 92% 4.0 mph W6.4 kmh W 4.1 mph6.6 kmh 29.86 in1011.2 mb 0.00 in0.0 mm 0.00 in0.0 mm 0.36 in9.1 mm
06:49 PM 35.6°F2.0°C 39.2°F4.0°C 92% 4.0 mph SW6.4 kmh SW 4.1 mph6.6 kmh 29.86 in1011.2 mb 0.00 in0.0 mm 0.00 in0.0 mm 0.36 in9.1 mm
06:52 PM 35.5°F1.9°C 39.2°F4.0°C 92% 4.0 mph WNW6.4 kmh WNW 4.1 mph6.6 kmh 29.86 in1011.2 mb 0.00 in0.0 mm 0.00 in0.0 mm 0.36 in9.1 mm
06:55 PM 35.7°F2.1°C 39.5°F4.2°C 92% 3.6 mph W5.8 kmh W 3.7 mph6.0 kmh 29.86 in1011.2 mb 0.00 in0.0 mm 0.00 in0.0 mm 0.38 in9.7 mm
06:58 PM 35.8°F2.1°C 39.2°F4.0°C 92% 6.4 mph NNW10.3 kmh NNW 6.5 mph10.5 kmh 29.86 in1011.2 mb 0.00 in0.0 mm 0.00 in0.0 mm 0.38 in9.7 mm
07:01 PM 35.8°F2.1°C 39.7°F4.3°C 92% 3.6 mph W5.8 kmh W 3.6 mph5.8 kmh 29.86 in1011.2 mb 0.00 in0.0 mm 0.00 in0.0 mm 0.38 in9.7 mm
07:04 PM 35.8°F2.1°C 39.6°F4.2°C 92% 1.2 mph WSW1.9 kmh WSW 1.2 mph1.9 kmh 29.86 in1011.2 mb 0.00 in0.0 mm 0.00 in0.0 mm 0.38 in9.7 mm
07:07 PM 35.8°F2.1°C 39.4°F4.1°C 92% 3.2 mph W5.1 kmh W 3.3 mph5.3 kmh 29.86 in1011.2 mb 0.00 in0.0 mm 0.00 in0.0 mm 0.38 in9.7 mm
07:10 PM 35.8°F2.1°C 39.8°F4.3°C 92% 4.5 mph WSW7.2 kmh WSW 4.5 mph7.2 kmh 29.86 in1011.2 mb 0.00 in0.0 mm 0.00 in0.0 mm 0.38 in9.7 mm
07:13 PM 35.8°F2.1°C 39.8°F4.3°C 92% 2.8 mph NW4.5 kmh NW 2.8 mph4.5 kmh 29.86 in1011.2 mb 0.00 in0.0 mm 0.00 in0.0 mm 0.40 in10.2 mm
07:16 PM 35.8°F2.1°C 39.7°F4.3°C 92% 0.8 mph W1.3 kmh W 0.8 mph1.3 kmh 29.86 in1011.2 mb 0.00 in0.0 mm 0.00 in0.0 mm 0.40 in10.2 mm
07:19 PM 35.9°F2.2°C 39.3°F4.1°C 91% 4.4 mph WNW7.1 kmh WNW 4.5 mph7.2 kmh 29.86 in1011.2 mb 0.00 in0.0 mm 0.00 in0.0 mm 0.40 in10.2 mm
07:22 PM 36.1°F2.3°C 39.7°F4.3°C 92% 4.0 mph NNW6.4 kmh NNW 4.1 mph6.6 kmh 29.86 in1011.2 mb 0.00 in0.0 mm 0.00 in0.0 mm 0.40 in10.2 mm
07:25 PM 36.1°F2.3°C 40.0°F4.4°C 92% 4.0 mph WSW6.4 kmh WSW 4.1 mph6.6 kmh 29.86 in1011.2 mb 0.00 in0.0 mm 0.00 in0.0 mm 0.42 in10.7 mm
07:28 PM 36.1°F2.3°C 39.8°F4.3°C 92% 2.8 mph WNW4.5 kmh WNW 2.8 mph4.5 kmh 29.85 in1010.8 mb 0.00 in0.0 mm 0.00 in0.0 mm 0.42 in10.7 mm
07:31 PM 35.9°F2.2°C 39.9°F4.4°C 92% 3.6 mph W5.8 kmh W 3.7 mph6.0 kmh 29.86 in1011.2 mb 0.00 in0.0 mm 0.00 in0.0 mm 0.42 in10.7 mm
07:34 PM 36.2°F2.3°C 39.7°F4.3°C 92% 4.4 mph SW7.1 kmh SW 4.4 mph7.1 kmh 29.85 in1010.8 mb 0.00 in0.0 mm 0.00 in0.0 mm 0.42 in10.7 mm
07:37 PM 36.1°F2.3°C 39.5°F4.2°C 91% 3.6 mph NNW5.8 kmh NNW 3.7 mph6.0 kmh 29.84 in1010.5 mb 0.00 in0.0 mm 0.00 in0.0 mm 0.42 in10.7 mm
07:40 PM 36.2°F2.3°C 39.9°F4.4°C 92% 5.2 mph SW8.4 kmh SW 5.2 mph8.4 kmh 29.84 in1010.5 mb 0.00 in0.0 mm 0.00 in0.0 mm 0.44 in11.2 mm
07:43 PM 36.2°F2.3°C 40.1°F4.5°C 92% 3.6 mph SW5.8 kmh SW 3.6 mph5.8 kmh 29.84 in1010.5 mb 0.00 in0.0 mm 0.00 in0.0 mm 0.44 in11.2 mm
07:46 PM 36.2°F2.3°C 39.8°F4.3°C 92% 6.1 mph W9.8 kmh W 6.1 mph9.8 kmh 29.84 in1010.5 mb 0.00 in0.0 mm 0.00 in0.0 mm 0.44 in11.2 mm
07:49 PM 36.3°F2.4°C 40.0°F4.4°C 92% 5.1 mph W8.2 kmh W 5.2 mph8.4 kmh 29.84 in1010.5 mb 0.00 in0.0 mm 0.00 in0.0 mm 0.44 in11.2 mm
07:52 PM 36.2°F2.3°C 40.1°F4.5°C 92% 1.6 mph W2.6 kmh W 1.6 mph2.6 kmh 29.84 in1010.5 mb 0.00 in0.0 mm 0.00 in0.0 mm 0.46 in11.7 mm
07:55 PM 36.2°F2.3°C 40.3°F4.6°C 92% Calm Calm -- 29.84 in1010.5 mb 0.00 in0.0 mm 0.00 in0.0 mm 0.46 in11.7 mm
07:58 PM 36.3°F2.4°C 40.1°F4.5°C 92% 5.7 mph WSW9.2 kmh WSW 5.7 mph9.2 kmh 29.84 in1010.5 mb 0.00 in0.0 mm 0.00 in0.0 mm 0.46 in11.7 mm
08:01 PM 36.3°F2.4°C 40.2°F4.6°C 92% 4.0 mph NNW6.4 kmh NNW 4.1 mph6.6 kmh 29.84 in1010.5 mb 0.00 in0.0 mm 0.00 in0.0 mm 0.46 in11.7 mm
08:04 PM 36.3°F2.4°C 40.1°F4.5°C 92% 3.2 mph WSW5.1 kmh WSW 3.3 mph5.3 kmh 29.84 in1010.5 mb 0.00 in0.0 mm 0.00 in0.0 mm 0.46 in11.7 mm
08:07 PM 36.4°F2.4°C 40.3°F4.6°C 92% 6.5 mph SW10.5 kmh SW 6.5 mph10.5 kmh 29.84 in1010.5 mb 0.00 in0.0 mm 0.00 in0.0 mm 0.48 in12.2 mm
08:10 PM 36.4°F2.4°C 40.2°F4.6°C 92% 3.2 mph W5.1 kmh W 3.3 mph5.3 kmh 29.84 in1010.5 mb 0.00 in0.0 mm 0.00 in0.0 mm 0.48 in12.2 mm
08:13 PM 36.4°F2.4°C 40.5°F4.7°C 92% 3.2 mph WNW5.1 kmh WNW 3.2 mph5.1 kmh 29.84 in1010.5 mb 0.00 in0.0 mm 0.00 in0.0 mm 0.48 in12.2 mm
08:16 PM 36.4°F2.4°C 40.3°F4.6°C 92% 5.2 mph W8.4 kmh W 5.2 mph8.4 kmh 29.84 in1010.5 mb 0.00 in0.0 mm 0.00 in0.0 mm 0.48 in12.2 mm
08:19 PM 36.5°F2.5°C 40.1°F4.5°C 92% 7.3 mph W11.7 kmh W 7.3 mph11.7 kmh 29.84 in1010.5 mb 0.00 in0.0 mm 0.00 in0.0 mm 0.50 in12.7 mm
08:22 PM 36.4°F2.4°C 40.0°F4.4°C 91% 4.0 mph NNW6.4 kmh NNW 4.1 mph6.6 kmh 29.83 in1010.2 mb 0.00 in0.0 mm 0.00 in0.0 mm 0.50 in12.7 mm
08:25 PM 36.4°F2.4°C 40.4°F4.7°C 92% 6.1 mph W9.8 kmh W 6.1 mph9.8 kmh 29.83 in1010.2 mb 0.00 in0.0 mm 0.00 in0.0 mm 0.50 in12.7 mm
08:28 PM 36.5°F2.5°C 40.4°F4.7°C 92% 1.6 mph SW2.6 kmh SW 1.6 mph2.6 kmh 29.83 in1010.2 mb 0.00 in0.0 mm 0.00 in0.0 mm 0.50 in12.7 mm
08:31 PM 36.5°F2.5°C 40.5°F4.7°C 92% 4.4 mph NNW7.1 kmh NNW 4.5 mph7.2 kmh 29.83 in1010.2 mb 0.00 in0.0 mm 0.00 in0.0 mm 0.50 in12.7 mm
08:34 PM 36.5°F2.5°C 40.4°F4.7°C 92% 5.7 mph W9.2 kmh W 5.7 mph9.2 kmh 29.83 in1010.2 mb 0.00 in0.0 mm 0.00 in0.0 mm 0.50 in12.7 mm
08:37 PM 36.4°F2.4°C 40.4°F4.7°C 92% 2.4 mph W3.9 kmh W 2.4 mph3.9 kmh 29.83 in1010.2 mb 0.00 in0.0 mm 0.00 in0.0 mm 0.52 in13.2 mm
08:40 PM 36.5°F2.5°C 40.3°F4.6°C 92% 6.1 mph WSW9.8 kmh WSW 6.1 mph9.8 kmh 29.83 in1010.2 mb 0.00 in0.0 mm 0.00 in0.0 mm 0.52 in13.2 mm
08:43 PM 36.6°F2.6°C 40.3°F4.6°C 92% 3.6 mph W5.8 kmh W 3.6 mph5.8 kmh 29.83 in1010.2 mb 0.00 in0.0 mm 0.00 in0.0 mm 0.52 in13.2 mm
08:46 PM 36.6°F2.6°C 40.5°F4.7°C 93% 5.2 mph NNW8.4 kmh NNW 5.3 mph8.5 kmh 29.83 in1010.2 mb 0.00 in0.0 mm 0.00 in0.0 mm 0.52 in13.2 mm
08:52 PM 36.7°F2.6°C 40.6°F4.8°C 93% 3.6 mph W5.8 kmh W 3.6 mph5.8 kmh 29.82 in1009.8 mb 0.00 in0.0 mm 0.00 in0.0 mm 0.52 in13.2 mm
08:55 PM 36.7°F2.6°C 40.6°F4.8°C 92% 4.0 mph WSW6.4 kmh WSW 4.0 mph6.4 kmh 29.82 in1009.8 mb 0.00 in0.0 mm 0.00 in0.0 mm 0.52 in13.2 mm
08:58 PM 36.7°F2.6°C 40.6°F4.8°C 93% 1.2 mph WSW1.9 kmh WSW 1.2 mph1.9 kmh 29.82 in1009.8 mb 0.00 in0.0 mm 0.00 in0.0 mm 0.52 in13.2 mm
09:01 PM 36.8°F2.7°C 40.6°F4.8°C 92% 6.0 mph WSW9.7 kmh WSW 6.0 mph9.7 kmh 29.82 in1009.8 mb 0.00 in0.0 mm 0.00 in0.0 mm 0.52 in13.2 mm
09:04 PM 36.7°F2.6°C 40.4°F4.7°C 92% 2.0 mph NNW3.2 kmh NNW 2.0 mph3.2 kmh 29.82 in1009.8 mb 0.00 in0.0 mm 0.00 in0.0 mm 0.52 in13.2 mm
09:07 PM 36.8°F2.7°C 40.8°F4.9°C 92% 1.6 mph WSW2.6 kmh WSW 1.6 mph2.6 kmh 29.82 in1009.8 mb 0.00 in0.0 mm 0.00 in0.0 mm 0.54 in13.7 mm
09:10 PM 36.8°F2.7°C 40.8°F4.9°C 92% 3.2 mph W5.1 kmh W 3.2 mph5.1 kmh 29.81 in1009.5 mb 0.00 in0.0 mm 0.00 in0.0 mm 0.54 in13.7 mm
09:13 PM 36.8°F2.7°C 40.4°F4.7°C 92% 4.4 mph WSW7.1 kmh WSW 4.5 mph7.2 kmh 29.81 in1009.5 mb 0.00 in0.0 mm 0.00 in0.0 mm 0.54 in13.7 mm
09:16 PM 36.8°F2.7°C 40.8°F4.9°C 92% 5.3 mph W8.5 kmh W 5.3 mph8.5 kmh 29.82 in1009.8 mb 0.00 in0.0 mm 0.00 in0.0 mm 0.54 in13.7 mm
09:19 PM 36.8°F2.7°C 40.7°F4.8°C 92% 4.0 mph WSW6.4 kmh WSW 4.1 mph6.6 kmh 29.81 in1009.5 mb 0.00 in0.0 mm 0.00 in0.0 mm 0.54 in13.7 mm
09:22 PM 36.8°F2.7°C 40.6°F4.8°C 92% 4.1 mph W6.6 kmh W 4.1 mph6.6 kmh 29.81 in1009.5 mb 0.00 in0.0 mm 0.00 in0.0 mm 0.54 in13.7 mm
09:25 PM 36.8°F2.7°C 41.0°F5.0°C 92% 3.2 mph WSW5.1 kmh WSW 3.3 mph5.3 kmh 29.81 in1009.5 mb 0.00 in0.0 mm 0.00 in0.0 mm 0.54 in13.7 mm
09:28 PM 37.0°F2.8°C 40.8°F4.9°C 92% 7.2 mph WSW11.6 kmh WSW 7.2 mph11.6 kmh 29.81 in1009.5 mb 0.00 in0.0 mm 0.00 in0.0 mm 0.54 in13.7 mm
09:31 PM 37.1°F2.8°C 41.0°F5.0°C 92% 3.6 mph W5.8 kmh W 3.7 mph6.0 kmh 29.81 in1009.5 mb 0.00 in0.0 mm 0.00 in0.0 mm 0.54 in13.7 mm
09:34 PM 37.1°F2.8°C 40.9°F4.9°C 92% 6.1 mph W9.8 kmh W 6.1 mph9.8 kmh 29.81 in1009.5 mb 0.00 in0.0 mm 0.00 in0.0 mm 0.54 in13.7 mm
09:37 PM 37.0°F2.8°C 40.9°F4.9°C 92% Calm Calm -- 29.81 in1009.5 mb 0.00 in0.0 mm 0.00 in0.0 mm 0.54 in13.7 mm
09:40 PM 37.0°F2.8°C 40.9°F4.9°C 92% 4.1 mph WSW6.6 kmh WSW 4.1 mph6.6 kmh 29.81 in1009.5 mb 0.00 in0.0 mm 0.00 in0.0 mm 0.54 in13.7 mm
09:43 PM 37.0°F2.8°C 41.1°F5.1°C 92% 3.2 mph W5.1 kmh W 3.3 mph5.3 kmh 29.81 in1009.5 mb 0.00 in0.0 mm 0.00 in0.0 mm 0.54 in13.7 mm
09:46 PM 37.0°F2.8°C 40.8°F4.9°C 92% 2.0 mph SW3.2 kmh SW 2.0 mph3.2 kmh 29.81 in1009.5 mb 0.00 in0.0 mm 0.00 in0.0 mm 0.54 in13.7 mm
09:49 PM 37.1°F2.8°C 40.8°F4.9°C 92% 2.4 mph WSW3.9 kmh WSW 2.4 mph3.9 kmh 29.81 in1009.5 mb 0.00 in0.0 mm 0.00 in0.0 mm 0.54 in13.7 mm
09:52 PM 37.1°F2.8°C 41.0°F5.0°C 92% 2.8 mph SW4.5 kmh SW 2.8 mph4.5 kmh 29.81 in1009.5 mb 0.00 in0.0 mm 0.00 in0.0 mm 0.54 in13.7 mm
09:55 PM 37.1°F2.8°C 40.9°F4.9°C 92% 5.7 mph W9.2 kmh W 5.7 mph9.2 kmh 29.81 in1009.5 mb 0.00 in0.0 mm 0.00 in0.0 mm 0.54 in13.7 mm
09:58 PM 37.1°F2.8°C 40.8°F4.9°C 92% 4.9 mph WSW7.9 kmh WSW 4.9 mph7.9 kmh 29.81 in1009.5 mb 0.00 in0.0 mm 0.00 in0.0 mm 0.54 in13.7 mm
10:01 PM 37.0°F2.8°C 40.7°F4.8°C 91% 2.4 mph W3.9 kmh W 2.4 mph3.9 kmh 29.80 in1009.1 mb 0.00 in0.0 mm 0.00 in0.0 mm 0.54 in13.7 mm
10:04 PM 37.0°F2.8°C 40.7°F4.8°C 92% 5.6 mph WSW9.0 kmh WSW 5.6 mph9.0 kmh 29.80 in1009.1 mb 0.00 in0.0 mm 0.00 in0.0 mm 0.54 in13.7 mm
10:07 PM 37.0°F2.8°C 41.0°F5.0°C 92% 2.8 mph W4.5 kmh W 2.9 mph4.7 kmh 29.80 in1009.1 mb 0.00 in0.0 mm 0.00 in0.0 mm 0.54 in13.7 mm
10:10 PM 36.8°F2.7°C 41.0°F5.0°C 92% 2.4 mph SW3.9 kmh SW 2.4 mph3.9 kmh 29.80 in1009.1 mb 0.00 in0.0 mm 0.00 in0.0 mm 0.54 in13.7 mm
10:13 PM 36.8°F2.7°C 41.0°F5.0°C 91% 3.6 mph WSW5.8 kmh WSW 3.6 mph5.8 kmh 29.80 in1009.1 mb 0.00 in0.0 mm 0.00 in0.0 mm 0.54 in13.7 mm
10:16 PM 37.0°F2.8°C 40.9°F4.9°C 91% 4.4 mph W7.1 kmh W 4.4 mph7.1 kmh 29.80 in1009.1 mb 0.00 in0.0 mm 0.00 in0.0 mm 0.56 in14.2 mm
10:19 PM 36.8°F2.7°C 40.8°F4.9°C 91% 2.4 mph W3.9 kmh W 2.5 mph4.0 kmh 29.79 in1008.8 mb 0.00 in0.0 mm 0.00 in0.0 mm 0.56 in14.2 mm
10:22 PM 36.8°F2.7°C 40.8°F4.9°C 91% 3.6 mph W5.8 kmh W 3.6 mph5.8 kmh 29.79 in1008.8 mb 0.00 in0.0 mm 0.00 in0.0 mm 0.56 in14.2 mm
10:25 PM 37.0°F2.8°C 40.8°F4.9°C 91% 6.9 mph W11.1 kmh W 6.9 mph11.1 kmh 29.79 in1008.8 mb 0.00 in0.0 mm 0.00 in0.0 mm 0.56 in14.2 mm
10:28 PM 37.0°F2.8°C 40.8°F4.9°C 91% 6.0 mph NNW9.7 kmh NNW 6.0 mph9.7 kmh 29.79 in1008.8 mb 0.00 in0.0 mm 0.00 in0.0 mm 0.56 in14.2 mm
10:31 PM 37.0°F2.8°C 40.9°F4.9°C 91% 4.4 mph W7.1 kmh W 4.5 mph7.2 kmh 29.79 in1008.8 mb 0.00 in0.0 mm 0.00 in0.0 mm 0.56 in14.2 mm
10:34 PM 37.0°F2.8°C 40.9°F4.9°C 91% 4.4 mph SW7.1 kmh SW 4.4 mph7.1 kmh 29.79 in1008.8 mb 0.00 in0.0 mm 0.00 in0.0 mm 0.56 in14.2 mm
10:37 PM 37.1°F2.8°C 40.9°F4.9°C 92% 4.4 mph WSW7.1 kmh WSW 4.4 mph7.1 kmh 29.79 in1008.8 mb 0.00 in0.0 mm 0.00 in0.0 mm 0.56 in14.2 mm
10:40 PM 37.1°F2.8°C 40.9°F4.9°C 91% 3.2 mph W5.1 kmh W 3.2 mph5.1 kmh 29.79 in1008.8 mb 0.00 in0.0 mm 0.00 in0.0 mm 0.56 in14.2 mm
10:43 PM 37.1°F2.8°C 40.8°F4.9°C 91% 1.2 mph W1.9 kmh W 1.2 mph1.9 kmh 29.79 in1008.8 mb 0.00 in0.0 mm 0.00 in0.0 mm 0.56 in14.2 mm
10:46 PM 37.3°F2.9°C 40.9°F4.9°C 92% 3.2 mph NNW5.1 kmh NNW 3.3 mph5.3 kmh 29.79 in1008.8 mb 0.00 in0.0 mm 0.00 in0.0 mm 0.56 in14.2 mm
10:49 PM 37.2°F2.9°C 40.9°F4.9°C 91% 6.3 mph W10.1 kmh W 6.3 mph10.1 kmh 29.79 in1008.8 mb 0.00 in0.0 mm 0.00 in0.0 mm 0.56 in14.2 mm
10:52 PM 37.1°F2.8°C 41.0°F5.0°C 91% 5.7 mph WSW9.2 kmh WSW 5.7 mph9.2 kmh 29.78 in1008.5 mb 0.00 in0.0 mm 0.00 in0.0 mm 0.56 in14.2 mm
10:55 PM 37.1°F2.8°C 41.0°F5.0°C 91% 3.2 mph W5.1 kmh W 3.3 mph5.3 kmh 29.79 in1008.8 mb 0.00 in0.0 mm 0.00 in0.0 mm 0.56 in14.2 mm
10:58 PM 37.1°F2.8°C 41.2°F5.1°C 92% 6.1 mph W9.8 kmh W 6.1 mph9.8 kmh 29.79 in1008.8 mb 0.00 in0.0 mm 0.00 in0.0 mm 0.56 in14.2 mm
11:01 PM 37.2°F2.9°C 41.1°F5.1°C 91% 6.1 mph W9.8 kmh W 6.1 mph9.8 kmh 29.79 in1008.8 mb 0.00 in0.0 mm 0.00 in0.0 mm 0.56 in14.2 mm
11:04 PM 37.1°F2.8°C 41.0°F5.0°C 92% 4.0 mph WNW6.4 kmh WNW 4.1 mph6.6 kmh 29.78 in1008.5 mb 0.00 in0.0 mm 0.00 in0.0 mm 0.56 in14.2 mm
11:07 PM 37.2°F2.9°C 41.0°F5.0°C 91% 1.2 mph W1.9 kmh W 1.2 mph1.9 kmh 29.78 in1008.5 mb 0.00 in0.0 mm 0.00 in0.0 mm 0.56 in14.2 mm
11:10 PM 37.2°F2.9°C 40.9°F4.9°C 91% 6.4 mph SW10.3 kmh SW 6.4 mph10.3 kmh 29.77 in1008.1 mb 0.00 in0.0 mm 0.00 in0.0 mm 0.56 in14.2 mm
11:13 PM 37.2°F2.9°C 40.8°F4.9°C 91% 5.7 mph SSW9.2 kmh SSW 5.7 mph9.2 kmh 29.77 in1008.1 mb 0.00 in0.0 mm 0.00 in0.0 mm 0.56 in14.2 mm
11:16 PM 37.3°F2.9°C 41.0°F5.0°C 92% 3.2 mph W5.1 kmh W 3.3 mph5.3 kmh 29.77 in1008.1 mb 0.00 in0.0 mm 0.00 in0.0 mm 0.58 in14.7 mm
11:19 PM 37.2°F2.9°C 40.8°F4.9°C 91% 3.6 mph W5.8 kmh W 3.6 mph5.8 kmh 29.77 in1008.1 mb 0.00 in0.0 mm 0.00 in0.0 mm 0.58 in14.7 mm
11:22 PM 37.3°F2.9°C 40.6°F4.8°C 90% 4.0 mph WNW6.4 kmh WNW 4.0 mph6.4 kmh 29.77 in1008.1 mb 0.00 in0.0 mm 0.00 in0.0 mm 0.58 in14.7 mm
11:25 PM 37.2°F2.9°C 41.1°F5.1°C 91% 1.6 mph WSW2.6 kmh WSW 1.6 mph2.6 kmh 29.77 in1008.1 mb 0.00 in0.0 mm 0.00 in0.0 mm 0.58 in14.7 mm
11:28 PM 37.1°F2.8°C 41.0°F5.0°C 91% 4.4 mph W7.1 kmh W 4.5 mph7.2 kmh 29.77 in1008.1 mb 0.00 in0.0 mm 0.00 in0.0 mm 0.58 in14.7 mm
11:31 PM 37.1°F2.8°C 41.0°F5.0°C 91% 1.2 mph W1.9 kmh W 1.2 mph1.9 kmh 29.77 in1008.1 mb 0.00 in0.0 mm 0.00 in0.0 mm 0.58 in14.7 mm
11:34 PM 37.1°F2.8°C 40.9°F4.9°C 91% 3.2 mph W5.1 kmh W 3.3 mph5.3 kmh 29.77 in1008.1 mb 0.00 in0.0 mm 0.00 in0.0 mm 0.58 in14.7 mm
11:37 PM 37.2°F2.9°C 41.2°F5.1°C 91% 4.8 mph W7.7 kmh W 4.8 mph7.7 kmh 29.77 in1008.1 mb 0.00 in0.0 mm 0.00 in0.0 mm 0.58 in14.7 mm
11:40 PM 37.2°F2.9°C 40.9°F4.9°C 91% 5.3 mph SSW8.5 kmh SSW 5.3 mph8.5 kmh 29.76 in1007.8 mb 0.00 in0.0 mm 0.00 in0.0 mm 0.58 in14.7 mm
11:43 PM 37.2°F2.9°C 41.2°F5.1°C 91% 4.4 mph W7.1 kmh W 4.4 mph7.1 kmh 29.76 in1007.8 mb 0.00 in0.0 mm 0.00 in0.0 mm 0.58 in14.7 mm
11:46 PM 37.2°F2.9°C 41.1°F5.1°C 91% 5.2 mph WSW8.4 kmh WSW 5.2 mph8.4 kmh 29.76 in1007.8 mb 0.00 in0.0 mm 0.00 in0.0 mm 0.58 in14.7 mm
11:49 PM 37.2°F2.9°C 40.7°F4.8°C 91% 5.3 mph NNW8.5 kmh NNW 5.3 mph8.5 kmh 29.76 in1007.8 mb 0.00 in0.0 mm 0.00 in0.0 mm 0.58 in14.7 mm
11:52 PM 37.2°F2.9°C 41.1°F5.1°C 91% 5.3 mph NW8.5 kmh NW 5.3 mph8.5 kmh 29.75 in1007.5 mb 0.00 in0.0 mm 0.00 in0.0 mm 0.58 in14.7 mm
11:55 PM 37.2°F2.9°C 40.8°F4.9°C 91% 6.0 mph WNW9.7 kmh WNW 6.0 mph9.7 kmh 29.76 in1007.8 mb 0.00 in0.0 mm 0.00 in0.0 mm 0.58 in14.7 mm
11:58 PM 37.2°F2.9°C 40.8°F4.9°C 91% 6.9 mph WSW11.1 kmh WSW 6.9 mph11.1 kmh 29.75 in1007.5 mb 0.00 in0.0 mm 0.00 in0.0 mm 0.58 in14.7 mm